<?xml version='1.0' encoding='UTF-8'?><gpx version="1.1" creator="JPX - https://github.com/jenetics/jpx" xmlns="http://www.topografix.com/GPX/1/1"><trk><trkseg><trkpt lat="48.839774066627804" lon="2.5870981346839916"><ele>97.00000000000001</ele><time>2026-04-07T09:15:04.992Z</time></trkpt><trkpt lat="48.83985801022735" lon="2.587115550559793"><ele>97.0</ele><time>2026-04-07T09:15:22.998Z</time></trkpt><trkpt lat="48.8399268024671" lon="2.587157347472789"><ele>97.0</ele><time>2026-04-07T09:15:25.998Z</time></trkpt><trkpt lat="48.83994696906113" lon="2.587294549433624"><ele>97.0</ele><time>2026-04-07T09:15:28.998Z</time></trkpt><trkpt lat="48.83993906364312" lon="2.5874390690740574"><ele>97.00000000000001</ele><time>2026-04-07T09:15:31.999Z</time></trkpt><trkpt lat="48.839945285944204" lon="2.5875566586786802"><ele>97.0</ele><time>2026-04-07T09:15:34.999Z</time></trkpt><trkpt lat="48.83992267849847" lon="2.5876582600812483"><ele>97.00000000000001</ele><time>2026-04-07T09:15:36.999Z</time></trkpt><trkpt lat="48.83991010049359" lon="2.58776301767995"><ele>97.0</ele><time>2026-04-07T09:15:39.999Z</time></trkpt><trkpt lat="48.83991389098419" lon="2.5878634618749836"><ele>97.0</ele><time>2026-04-07T09:15:42.999Z</time></trkpt><trkpt lat="48.84000203905771" lon="2.587832291546259"><ele>97.0</ele><time>2026-04-07T09:15:46Z</time></trkpt><trkpt lat="48.84008356757931" lon="2.587816264074877"><ele>97.00000000000001</ele><time>2026-04-07T09:15:49Z</time></trkpt><trkpt lat="48.840147000756915" lon="2.587800528112203"><ele>97.0</ele><time>2026-04-07T09:15:51Z</time></trkpt><trkpt lat="48.84022424180157" lon="2.5877845778188933"><ele>97.66666666666667</ele><time>2026-04-07T09:15:54Z</time></trkpt><trkpt lat="48.8402918757051" lon="2.5877983830787055"><ele>98.33333333333334</ele><time>2026-04-07T09:15:57Z</time></trkpt><trkpt lat="48.84038180081156" lon="2.5877624227481766"><ele>99.0</ele><time>2026-04-07T09:16:00Z</time></trkpt><trkpt lat="48.84046137751234" lon="2.587775875040112"><ele>99.66666666666666</ele><time>2026-04-07T09:16:03Z</time></trkpt><trkpt lat="48.840529303891856" lon="2.5878127652626755"><ele>100.33333333333333</ele><time>2026-04-07T09:16:07Z</time></trkpt><trkpt lat="48.840565752530466" lon="2.587914426752128"><ele>101.0</ele><time>2026-04-07T09:16:10Z</time></trkpt><trkpt lat="48.840598103076175" lon="2.588016082722634"><ele>100.99999999999999</ele><time>2026-04-07T09:16:12Z</time></trkpt><trkpt lat="48.840600422791624" lon="2.5881174141633982"><ele>101.0</ele><time>2026-04-07T09:16:14Z</time></trkpt><trkpt lat="48.84059992065057" lon="2.588250654827488"><ele>101.0</ele><time>2026-04-07T09:16:17Z</time></trkpt><trkpt lat="48.84062112820195" lon="2.588377446551248"><ele>101.0</ele><time>2026-04-07T09:16:20Z</time></trkpt><trkpt lat="48.840610254178685" lon="2.5884748097221326"><ele>100.99999999999999</ele><time>2026-04-07T09:16:22Z</time></trkpt><trkpt lat="48.84064278538171" lon="2.5886083944022866"><ele>101.0</ele><time>2026-04-07T09:16:26Z</time></trkpt><trkpt lat="48.84064335515866" lon="2.5887433886782514"><ele>100.49999999999999</ele><time>2026-04-07T09:16:29Z</time></trkpt><trkpt lat="48.8406446356468" lon="2.5888390863631545"><ele>100.0</ele><time>2026-04-07T09:16:31Z</time></trkpt><trkpt lat="48.840655441166476" lon="2.5889542615504206"><ele>99.5</ele><time>2026-04-07T09:16:34Z</time></trkpt><trkpt lat="48.84064654321504" lon="2.5890789467860897"><ele>99.0</ele><time>2026-04-07T09:16:37Z</time></trkpt><trkpt lat="48.84065474062927" lon="2.589184096387573"><ele>98.49999999999999</ele><time>2026-04-07T09:16:40Z</time></trkpt><trkpt lat="48.840650535936874" lon="2.5893138265247297"><ele>98.0</ele><time>2026-04-07T09:16:44Z</time></trkpt><trkpt lat="48.8406593527576" lon="2.589428292884968"><ele>97.33333333333333</ele><time>2026-04-07T09:16:47Z</time></trkpt><trkpt lat="48.8406493188188" lon="2.589552979821349"><ele>96.66666666666666</ele><time>2026-04-07T09:16:49Z</time></trkpt><trkpt lat="48.84067718436421" lon="2.58965281923862"><ele>96.0</ele><time>2026-04-07T09:16:52Z</time></trkpt><trkpt lat="48.840666736354336" lon="2.5897902264836095"><ele>95.33333333333333</ele><time>2026-04-07T09:16:55Z</time></trkpt><trkpt lat="48.84067642808463" lon="2.5899058174316028"><ele>94.66666666666666</ele><time>2026-04-07T09:16:58Z</time></trkpt><trkpt lat="48.84069583949197" lon="2.5899998885315347"><ele>94.0</ele><time>2026-04-07T09:17:01Z</time></trkpt><trkpt lat="48.840694622292034" lon="2.590135417832995"><ele>94.0</ele><time>2026-04-07T09:17:05Z</time></trkpt><trkpt lat="48.840699150030076" lon="2.5902638338392525"><ele>94.0</ele><time>2026-04-07T09:17:08Z</time></trkpt><trkpt lat="48.84077626395485" lon="2.5903017137767423"><ele>94.0</ele><time>2026-04-07T09:17:11Z</time></trkpt><trkpt lat="48.840863679087754" lon="2.590337951131222"><ele>94.0</ele><time>2026-04-07T09:17:14Z</time></trkpt><trkpt lat="48.840931146199" lon="2.5903992917646983"><ele>94.0</ele><time>2026-04-07T09:17:17Z</time></trkpt><trkpt lat="48.84099804979594" lon="2.5904359612830836"><ele>94.0</ele><time>2026-04-07T09:17:19Z</time></trkpt><trkpt lat="48.84105597508017" lon="2.5905048992403086"><ele>93.66666666666666</ele><time>2026-04-07T09:17:22Z</time></trkpt><trkpt lat="48.841103174547605" lon="2.590571276433908"><ele>93.33333333333333</ele><time>2026-04-07T09:17:25Z</time></trkpt><trkpt lat="48.84115294173645" lon="2.5906427833720915"><ele>93.0</ele><time>2026-04-07T09:17:28Z</time></trkpt><trkpt lat="48.84121301334229" lon="2.590725503324517"><ele>92.66666666666667</ele><time>2026-04-07T09:17:31Z</time></trkpt><trkpt lat="48.84127135546842" lon="2.5908162272612514"><ele>92.33333333333334</ele><time>2026-04-07T09:17:34Z</time></trkpt><trkpt lat="48.841329770753944" lon="2.5908925420597164"><ele>92.0</ele><time>2026-04-07T09:17:37Z</time></trkpt><trkpt lat="48.84138472814396" lon="2.590991746209774"><ele>92.0</ele><time>2026-04-07T09:17:40Z</time></trkpt><trkpt lat="48.84142866446674" lon="2.591075580889918"><ele>92.0</ele><time>2026-04-07T09:17:42Z</time></trkpt><trkpt lat="48.84143916650177" lon="2.591188411840452"><ele>92.0</ele><time>2026-04-07T09:17:46Z</time></trkpt><trkpt lat="48.841466621575904" lon="2.591313630693678"><ele>92.0</ele><time>2026-04-07T09:17:50Z</time></trkpt><trkpt lat="48.8414630761592" lon="2.591419016995641"><ele>92.0</ele><time>2026-04-07T09:17:53Z</time></trkpt><trkpt lat="48.841438686371454" lon="2.59151467524406"><ele>92.0</ele><time>2026-04-07T09:17:56Z</time></trkpt><trkpt lat="48.84142702563426" lon="2.5916134272259477"><ele>92.0</ele><time>2026-04-07T09:17:59Z</time></trkpt><trkpt lat="48.841418162199126" lon="2.59172577762951"><ele>92.16666666666667</ele><time>2026-04-07T09:18:02Z</time></trkpt><trkpt lat="48.84143230816899" lon="2.591838635123299"><ele>92.33333333333334</ele><time>2026-04-07T09:18:05Z</time></trkpt><trkpt lat="48.84150660726809" lon="2.591956213062782"><ele>92.5</ele><time>2026-04-07T09:18:08Z</time></trkpt><trkpt lat="48.84155112357074" lon="2.592079858912826"><ele>92.66666666666667</ele><time>2026-04-07T09:18:10Z</time></trkpt><trkpt lat="48.84160546793345" lon="2.592146692061513"><ele>92.83333333333333</ele><time>2026-04-07T09:18:12Z</time></trkpt><trkpt lat="48.84165266429909" lon="2.5922453986549305"><ele>93.0</ele><time>2026-04-07T09:18:15Z</time></trkpt><trkpt lat="48.84166946990987" lon="2.5923392486629857"><ele>93.0</ele><time>2026-04-07T09:18:18Z</time></trkpt><trkpt lat="48.841678449037495" lon="2.592460590354798"><ele>93.0</ele><time>2026-04-07T09:18:21Z</time></trkpt><trkpt lat="48.84169237904576" lon="2.5925675565065514"><ele>93.0</ele><time>2026-04-07T09:18:24Z</time></trkpt><trkpt lat="48.841718469161485" lon="2.5926793237485626"><ele>93.0</ele><time>2026-04-07T09:18:26Z</time></trkpt><trkpt lat="48.84177632217559" lon="2.592782449087549"><ele>93.0</ele><time>2026-04-07T09:18:29Z</time></trkpt><trkpt lat="48.841733185338754" lon="2.592900276094721"><ele>93.0</ele><time>2026-04-07T09:18:32Z</time></trkpt><trkpt lat="48.8416784967391" lon="2.593011481438604"><ele>93.00000000000001</ele><time>2026-04-07T09:18:35Z</time></trkpt><trkpt lat="48.841676890605896" lon="2.5931081732785333"><ele>93.0</ele><time>2026-04-07T09:18:38Z</time></trkpt><trkpt lat="48.84169697812672" lon="2.5932003546393223"><ele>93.0</ele><time>2026-04-07T09:18:40Z</time></trkpt><trkpt lat="48.84170712443548" lon="2.5933203596433683"><ele>93.0</ele><time>2026-04-07T09:18:43Z</time></trkpt><trkpt lat="48.84171259202488" lon="2.5934402104845473"><ele>93.0</ele><time>2026-04-07T09:18:46Z</time></trkpt><trkpt lat="48.8417260234936" lon="2.593558519951153"><ele>93.00000000000001</ele><time>2026-04-07T09:18:49Z</time></trkpt><trkpt lat="48.84172324818218" lon="2.59367384013261"><ele>93.0</ele><time>2026-04-07T09:18:52Z</time></trkpt><trkpt lat="48.841724103605905" lon="2.593789738326699"><ele>93.16666666666667</ele><time>2026-04-07T09:18:55Z</time></trkpt><trkpt lat="48.8417455007074" lon="2.5939262370083602"><ele>93.33333333333333</ele><time>2026-04-07T09:18:58Z</time></trkpt><trkpt lat="48.84172433260062" lon="2.5940620242855803"><ele>93.5</ele><time>2026-04-07T09:19:01Z</time></trkpt><trkpt lat="48.84169987044892" lon="2.594177895542092"><ele>93.66666666666666</ele><time>2026-04-07T09:19:04Z</time></trkpt><trkpt lat="48.84168292265289" lon="2.5942956279091263"><ele>93.83333333333333</ele><time>2026-04-07T09:19:07Z</time></trkpt><trkpt lat="48.84166682231156" lon="2.594433067375599"><ele>94.0</ele><time>2026-04-07T09:19:10Z</time></trkpt><trkpt lat="48.84166496588754" lon="2.5945724605229286"><ele>94.0</ele><time>2026-04-07T09:19:13Z</time></trkpt><trkpt lat="48.841639646878214" lon="2.594702348305741"><ele>94.0</ele><time>2026-04-07T09:19:16Z</time></trkpt><trkpt lat="48.84165409861333" lon="2.594795574331098"><ele>94.0</ele><time>2026-04-07T09:19:18Z</time></trkpt><trkpt lat="48.84163511418582" lon="2.594945387185328"><ele>94.0</ele><time>2026-04-07T09:19:21Z</time></trkpt><trkpt lat="48.841619536188375" lon="2.59505744567359"><ele>94.0</ele><time>2026-04-07T09:19:24Z</time></trkpt><trkpt lat="48.84162525361119" lon="2.5951775792902376"><ele>94.0</ele><time>2026-04-07T09:19:27Z</time></trkpt><trkpt lat="48.8416417619742" lon="2.59527238628311"><ele>94.0</ele><time>2026-04-07T09:19:29Z</time></trkpt><trkpt lat="48.841672894656924" lon="2.5953685625136336"><ele>94.0</ele><time>2026-04-07T09:19:31Z</time></trkpt><trkpt lat="48.84166716680393" lon="2.595487473766107"><ele>94.0</ele><time>2026-04-07T09:19:33Z</time></trkpt><trkpt lat="48.8416662927672" lon="2.5955864985787263"><ele>94.0</ele><time>2026-04-07T09:19:35Z</time></trkpt><trkpt lat="48.84170701752996" lon="2.595696334201283"><ele>94.0</ele><time>2026-04-07T09:19:38Z</time></trkpt><trkpt lat="48.841704599498996" lon="2.595822016304124"><ele>94.0</ele><time>2026-04-07T09:19:41Z</time></trkpt><trkpt lat="48.8416908117713" lon="2.5959155221257353"><ele>94.0</ele><time>2026-04-07T09:19:43Z</time></trkpt><trkpt lat="48.84169100612467" lon="2.596033400612618"><ele>94.0</ele><time>2026-04-07T09:19:46Z</time></trkpt><trkpt lat="48.84171131819154" lon="2.596162328792624"><ele>94.0</ele><time>2026-04-07T09:19:49Z</time></trkpt><trkpt lat="48.841727262681104" lon="2.59629643856046"><ele>94.0</ele><time>2026-04-07T09:19:52Z</time></trkpt><trkpt lat="48.841712410052764" lon="2.5964196223472595"><ele>94.0</ele><time>2026-04-07T09:19:55Z</time></trkpt><trkpt lat="48.84174034156737" lon="2.5965208687431947"><ele>94.0</ele><time>2026-04-07T09:19:57Z</time></trkpt><trkpt lat="48.84174496288177" lon="2.596661974772792"><ele>94.0</ele><time>2026-04-07T09:20:00Z</time></trkpt><trkpt lat="48.841768192683176" lon="2.596780738752018"><ele>93.83333333333333</ele><time>2026-04-07T09:20:03Z</time></trkpt><trkpt lat="48.84179124805657" lon="2.5968950330735256"><ele>93.66666666666666</ele><time>2026-04-07T09:20:06Z</time></trkpt><trkpt lat="48.84181405162214" lon="2.597021792583332"><ele>93.5</ele><time>2026-04-07T09:20:09Z</time></trkpt><trkpt lat="48.841833586027946" lon="2.597125726947019"><ele>93.33333333333333</ele><time>2026-04-07T09:20:11Z</time></trkpt><trkpt lat="48.84184901224358" lon="2.597258734102631"><ele>93.16666666666667</ele><time>2026-04-07T09:20:14Z</time></trkpt><trkpt lat="48.84187180081826" lon="2.597351396556441"><ele>93.0</ele><time>2026-04-07T09:20:16Z</time></trkpt><trkpt lat="48.841914847864615" lon="2.5974749350606205"><ele>91.5</ele><time>2026-04-07T09:20:19Z</time></trkpt><trkpt lat="48.84193081039495" lon="2.5975858924679716"><ele>90.0</ele><time>2026-04-07T09:20:22Z</time></trkpt><trkpt lat="48.84197767362815" lon="2.5977135865925653"><ele>88.5</ele><time>2026-04-07T09:20:25Z</time></trkpt><trkpt lat="48.8420146599453" lon="2.597829621647"><ele>87.0</ele><time>2026-04-07T09:20:28Z</time></trkpt><trkpt lat="48.84205497099751" lon="2.597915570567104"><ele>85.5</ele><time>2026-04-07T09:20:30Z</time></trkpt><trkpt lat="48.842118685914684" lon="2.5979687611362827"><ele>84.0</ele><time>2026-04-07T09:20:33Z</time></trkpt><trkpt lat="48.84218204622199" lon="2.597983471513778"><ele>83.66666666666667</ele><time>2026-04-07T09:20:36Z</time></trkpt><trkpt lat="48.8422472302445" lon="2.5980130298034423"><ele>83.33333333333333</ele><time>2026-04-07T09:20:39Z</time></trkpt><trkpt lat="48.84233317609576" lon="2.598074156591247"><ele>83.0</ele><time>2026-04-07T09:20:42Z</time></trkpt><trkpt lat="48.842406571627635" lon="2.5981048224347596"><ele>82.66666666666666</ele><time>2026-04-07T09:20:44Z</time></trkpt><trkpt lat="48.84240530638148" lon="2.5982035799439562"><ele>82.33333333333333</ele><time>2026-04-07T09:20:46Z</time></trkpt><trkpt lat="48.842387885379274" lon="2.5983013355845297"><ele>82.0</ele><time>2026-04-07T09:20:48Z</time></trkpt><trkpt lat="48.842368465955325" lon="2.5984469643738763"><ele>82.0</ele><time>2026-04-07T09:20:51Z</time></trkpt><trkpt lat="48.84234911654571" lon="2.598563333021508"><ele>82.0</ele><time>2026-04-07T09:20:54Z</time></trkpt><trkpt lat="48.84234212487384" lon="2.5986886336477255"><ele>82.0</ele><time>2026-04-07T09:20:57Z</time></trkpt><trkpt lat="48.84234071557412" lon="2.5988267294097884"><ele>82.0</ele><time>2026-04-07T09:21:00Z</time></trkpt><trkpt lat="48.842344820648876" lon="2.5989526758814145"><ele>82.0</ele><time>2026-04-07T09:21:03Z</time></trkpt><trkpt lat="48.8423649686494" lon="2.599052466959362"><ele>82.0</ele><time>2026-04-07T09:21:05Z</time></trkpt><trkpt lat="48.84241697209027" lon="2.5991363711918436"><ele>81.83333333333333</ele><time>2026-04-07T09:21:07Z</time></trkpt><trkpt lat="48.84249736133056" lon="2.599197171434872"><ele>81.66666666666666</ele><time>2026-04-07T09:21:10Z</time></trkpt><trkpt lat="48.84256757761671" lon="2.5991598853754905"><ele>81.5</ele><time>2026-04-07T09:21:12Z</time></trkpt><trkpt lat="48.84263855196723" lon="2.599133086760286"><ele>81.33333333333333</ele><time>2026-04-07T09:21:14Z</time></trkpt><trkpt lat="48.842732166117024" lon="2.599118371090255"><ele>81.16666666666667</ele><time>2026-04-07T09:21:17Z</time></trkpt><trkpt lat="48.84282625349759" lon="2.5991117369083825"><ele>81.0</ele><time>2026-04-07T09:21:20Z</time></trkpt><trkpt lat="48.84290645580594" lon="2.599091792442973"><ele>80.71428571428572</ele><time>2026-04-07T09:21:23Z</time></trkpt><trkpt lat="48.84296824035686" lon="2.5990691550649894"><ele>80.42857142857143</ele><time>2026-04-07T09:21:25Z</time></trkpt><trkpt lat="48.843032592989886" lon="2.599087056585704"><ele>80.14285714285714</ele><time>2026-04-07T09:21:27Z</time></trkpt><trkpt lat="48.84310826081208" lon="2.5990594072775575"><ele>79.85714285714286</ele><time>2026-04-07T09:21:30Z</time></trkpt><trkpt lat="48.84318256332472" lon="2.5990360748573607"><ele>79.57142857142857</ele><time>2026-04-07T09:21:32Z</time></trkpt><trkpt lat="48.84326224295209" lon="2.599011961227509"><ele>79.28571428571429</ele><time>2026-04-07T09:21:35Z</time></trkpt><trkpt lat="48.84333929096331" lon="2.598992768386081"><ele>79.0</ele><time>2026-04-07T09:21:38Z</time></trkpt><trkpt lat="48.84342462576749" lon="2.5989654059935394"><ele>78.83333333333333</ele><time>2026-04-07T09:21:41Z</time></trkpt><trkpt lat="48.84351247191373" lon="2.5989623076935153"><ele>78.66666666666666</ele><time>2026-04-07T09:21:44Z</time></trkpt><trkpt lat="48.84357334265542" lon="2.598936063003431"><ele>78.5</ele><time>2026-04-07T09:21:47Z</time></trkpt><trkpt lat="48.84365075784237" lon="2.598906104851493"><ele>78.33333333333333</ele><time>2026-04-07T09:21:50Z</time></trkpt><trkpt lat="48.84373995301106" lon="2.5989236063622174"><ele>78.16666666666667</ele><time>2026-04-07T09:21:53Z</time></trkpt><trkpt lat="48.84381893046217" lon="2.5988991627979274"><ele>78.0</ele><time>2026-04-07T09:21:56Z</time></trkpt><trkpt lat="48.84389076408753" lon="2.598871414825198"><ele>78.0</ele><time>2026-04-07T09:21:59Z</time></trkpt><trkpt lat="48.84396364074886" lon="2.598836074603284"><ele>78.0</ele><time>2026-04-07T09:22:02Z</time></trkpt><trkpt lat="48.84404077399701" lon="2.598821449205516"><ele>78.0</ele><time>2026-04-07T09:22:04Z</time></trkpt><trkpt lat="48.84412072683067" lon="2.5988034095763974"><ele>78.0</ele><time>2026-04-07T09:22:07Z</time></trkpt><trkpt lat="48.84419576950986" lon="2.598798276179671"><ele>78.0</ele><time>2026-04-07T09:22:10Z</time></trkpt><trkpt lat="48.84425895287323" lon="2.598762116163708"><ele>78.0</ele><time>2026-04-07T09:22:13Z</time></trkpt><trkpt lat="48.84434441590706" lon="2.5987369152553588"><ele>78.0</ele><time>2026-04-07T09:22:16Z</time></trkpt><trkpt lat="48.844422585965596" lon="2.598714177011342"><ele>78.0</ele><time>2026-04-07T09:22:19Z</time></trkpt><trkpt lat="48.84450867179489" lon="2.5986733427169697"><ele>78.0</ele><time>2026-04-07T09:22:23Z</time></trkpt><trkpt lat="48.84457687583501" lon="2.5987298466964632"><ele>78.0</ele><time>2026-04-07T09:22:25Z</time></trkpt><trkpt lat="48.84465409232718" lon="2.5986931284393617"><ele>78.0</ele><time>2026-04-07T09:22:28Z</time></trkpt><trkpt lat="48.8447250940062" lon="2.598638851482193"><ele>78.0</ele><time>2026-04-07T09:22:31Z</time></trkpt><trkpt lat="48.84480065779576" lon="2.5985998969319"><ele>78.0</ele><time>2026-04-07T09:22:34Z</time></trkpt><trkpt lat="48.84486880278731" lon="2.598598281207125"><ele>78.0</ele><time>2026-04-07T09:22:36Z</time></trkpt><trkpt lat="48.84493762372049" lon="2.5985558485442906"><ele>78.0</ele><time>2026-04-07T09:22:39Z</time></trkpt><trkpt lat="48.84501582010265" lon="2.5985739042963973"><ele>78.0</ele><time>2026-04-07T09:22:42Z</time></trkpt><trkpt lat="48.845077259924096" lon="2.5985355463069277"><ele>78.0</ele><time>2026-04-07T09:22:44Z</time></trkpt><trkpt lat="48.845144090194545" lon="2.5985056339726467"><ele>78.0</ele><time>2026-04-07T09:22:47Z</time></trkpt><trkpt lat="48.845232331159785" lon="2.5984977800022366"><ele>78.0</ele><time>2026-04-07T09:22:50Z</time></trkpt><trkpt lat="48.84531434698829" lon="2.5984717975083975"><ele>78.14285714285715</ele><time>2026-04-07T09:22:53Z</time></trkpt><trkpt lat="48.84537693405541" lon="2.598458731145462"><ele>78.28571428571428</ele><time>2026-04-07T09:22:55Z</time></trkpt><trkpt lat="48.84544215985696" lon="2.5984442519252617"><ele>78.42857142857143</ele><time>2026-04-07T09:22:57Z</time></trkpt><trkpt lat="48.84551773203389" lon="2.5984651552766986"><ele>78.57142857142858</ele><time>2026-04-07T09:23:00Z</time></trkpt><trkpt lat="48.845584746013266" lon="2.59848836195371"><ele>78.71428571428572</ele><time>2026-04-07T09:23:02Z</time></trkpt><trkpt lat="48.84565475195966" lon="2.598452759557498"><ele>78.85714285714286</ele><time>2026-04-07T09:23:05Z</time></trkpt><trkpt lat="48.845721069085336" lon="2.5983968454620787"><ele>79.0</ele><time>2026-04-07T09:23:08Z</time></trkpt><trkpt lat="48.84580320684538" lon="2.598418448139831"><ele>79.0</ele><time>2026-04-07T09:23:11Z</time></trkpt><trkpt lat="48.845878270031896" lon="2.598392968314436"><ele>79.0</ele><time>2026-04-07T09:23:14Z</time></trkpt><trkpt lat="48.84596542323953" lon="2.5983997405339534"><ele>79.0</ele><time>2026-04-07T09:23:17Z</time></trkpt><trkpt lat="48.846052775803095" lon="2.5983971055565607"><ele>79.0</ele><time>2026-04-07T09:23:20Z</time></trkpt><trkpt lat="48.84611989632448" lon="2.598393610761688"><ele>79.0</ele><time>2026-04-07T09:23:22Z</time></trkpt><trkpt lat="48.846216367636266" lon="2.598331051526389"><ele>79.0</ele><time>2026-04-07T09:23:26Z</time></trkpt><trkpt lat="48.846311081454324" lon="2.5983720770133703"><ele>78.33333333333333</ele><time>2026-04-07T09:23:29Z</time></trkpt><trkpt lat="48.84637724064483" lon="2.5983440797212434"><ele>77.66666666666666</ele><time>2026-04-07T09:23:31Z</time></trkpt><trkpt lat="48.84644660027354" lon="2.5983210875053553"><ele>77.0</ele><time>2026-04-07T09:23:34Z</time></trkpt><trkpt lat="48.84652112453325" lon="2.5983083428321274"><ele>76.33333333333333</ele><time>2026-04-07T09:23:37Z</time></trkpt><trkpt lat="48.84659951493229" lon="2.5983144062615193"><ele>75.66666666666667</ele><time>2026-04-07T09:23:40Z</time></trkpt><trkpt lat="48.846685264780426" lon="2.5983048689013564"><ele>75.0</ele><time>2026-04-07T09:23:43Z</time></trkpt><trkpt lat="48.84677284445569" lon="2.5983385516164317"><ele>74.33333333333333</ele><time>2026-04-07T09:23:46Z</time></trkpt><trkpt lat="48.84685630195548" lon="2.598360343731581"><ele>73.66666666666667</ele><time>2026-04-07T09:23:49Z</time></trkpt><trkpt lat="48.84693028954879" lon="2.598431720396862"><ele>73.0</ele><time>2026-04-07T09:23:52Z</time></trkpt><trkpt lat="48.84699275175684" lon="2.5984844212167797"><ele>72.33333333333334</ele><time>2026-04-07T09:23:54Z</time></trkpt><trkpt lat="48.84706117057279" lon="2.5984945047883774"><ele>71.66666666666667</ele><time>2026-04-07T09:23:56Z</time></trkpt><trkpt lat="48.84713531946455" lon="2.598551148456283"><ele>71.0</ele><time>2026-04-07T09:23:59Z</time></trkpt><trkpt lat="48.84720938435225" lon="2.598624767922639"><ele>71.0</ele><time>2026-04-07T09:24:02Z</time></trkpt><trkpt lat="48.84726748472412" lon="2.598666862932079"><ele>71.0</ele><time>2026-04-07T09:24:04Z</time></trkpt><trkpt lat="48.847344904056335" lon="2.5987282435632637"><ele>71.0</ele><time>2026-04-07T09:24:07Z</time></trkpt><trkpt lat="48.847406404631016" lon="2.5988441337405113"><ele>71.0</ele><time>2026-04-07T09:24:10Z</time></trkpt><trkpt lat="48.847446439558546" lon="2.5989305126407407"><ele>71.0</ele><time>2026-04-07T09:24:13Z</time></trkpt><trkpt lat="48.84752059690087" lon="2.598989961940886"><ele>71.0</ele><time>2026-04-07T09:24:16Z</time></trkpt><trkpt lat="48.84755862771283" lon="2.5990719026885167"><ele>70.83333333333334</ele><time>2026-04-07T09:24:18Z</time></trkpt><trkpt lat="48.847581820674684" lon="2.5992062294826095"><ele>70.66666666666667</ele><time>2026-04-07T09:24:22Z</time></trkpt><trkpt lat="48.84760476179969" lon="2.5993150682825585"><ele>70.5</ele><time>2026-04-07T09:24:25Z</time></trkpt><trkpt lat="48.8476374687322" lon="2.599405371224888"><ele>70.33333333333333</ele><time>2026-04-07T09:24:28Z</time></trkpt><trkpt lat="48.847679788868554" lon="2.599500770292939"><ele>70.16666666666666</ele><time>2026-04-07T09:24:31Z</time></trkpt><trkpt lat="48.84773858541967" lon="2.599582268834598"><ele>70.0</ele><time>2026-04-07T09:24:34Z</time></trkpt><trkpt lat="48.8477713484257" lon="2.599675311309039"><ele>70.0</ele><time>2026-04-07T09:24:37Z</time></trkpt><trkpt lat="48.847794473941285" lon="2.599804790756024"><ele>70.0</ele><time>2026-04-07T09:24:40Z</time></trkpt><trkpt lat="48.847840864924386" lon="2.5999019057399098"><ele>70.0</ele><time>2026-04-07T09:24:43Z</time></trkpt><trkpt lat="48.84783574855948" lon="2.600030465512894"><ele>70.0</ele><time>2026-04-07T09:24:46Z</time></trkpt><trkpt lat="48.84782291537773" lon="2.600150206919288"><ele>70.0</ele><time>2026-04-07T09:24:49Z</time></trkpt><trkpt lat="48.847814529075265" lon="2.6002747787247915"><ele>70.0</ele><time>2026-04-07T09:24:52Z</time></trkpt><trkpt lat="48.84781408463609" lon="2.6004011661090125"><ele>71.0</ele><time>2026-04-07T09:24:55Z</time></trkpt><trkpt lat="48.84780606238127" lon="2.600502523280669"><ele>72.0</ele><time>2026-04-07T09:24:58Z</time></trkpt><trkpt lat="48.8478199866754" lon="2.6006186003251774"><ele>73.0</ele><time>2026-04-07T09:25:01Z</time></trkpt><trkpt lat="48.84781468130614" lon="2.6007278358448396"><ele>74.0</ele><time>2026-04-07T09:25:04Z</time></trkpt><trkpt lat="48.84781760679842" lon="2.60084715098996"><ele>75.0</ele><time>2026-04-07T09:25:07Z</time></trkpt><trkpt lat="48.84782128864934" lon="2.600961246293251"><ele>76.0</ele><time>2026-04-07T09:25:10Z</time></trkpt><trkpt lat="48.847815409954556" lon="2.6010622456853927"><ele>77.0</ele><time>2026-04-07T09:25:13Z</time></trkpt><trkpt lat="48.84781044391111" lon="2.601160536339086"><ele>77.0</ele><time>2026-04-07T09:25:16Z</time></trkpt><trkpt lat="48.84788958779703" lon="2.6012033249162716"><ele>77.0</ele><time>2026-04-07T09:25:19Z</time></trkpt><trkpt lat="48.847974279154364" lon="2.6011658787316083"><ele>77.0</ele><time>2026-04-07T09:25:22Z</time></trkpt><trkpt lat="48.848062557396624" lon="2.601154544248844"><ele>77.0</ele><time>2026-04-07T09:25:26Z</time></trkpt><trkpt lat="48.84812519682017" lon="2.601192296112954"><ele>77.0</ele><time>2026-04-07T09:25:29Z</time></trkpt><trkpt lat="48.84818946384573" lon="2.6012012252486016"><ele>77.0</ele><time>2026-04-07T09:25:31Z</time></trkpt><trkpt lat="48.84823130313928" lon="2.601282808673432"><ele>77.5</ele><time>2026-04-07T09:25:34Z</time></trkpt><trkpt lat="48.8482739478127" lon="2.601369042973038"><ele>78.0</ele><time>2026-04-07T09:25:37Z</time></trkpt><trkpt lat="48.848303127631745" lon="2.601494347125831"><ele>78.5</ele><time>2026-04-07T09:25:40Z</time></trkpt><trkpt lat="48.84831168240591" lon="2.6016073413519836"><ele>79.0</ele><time>2026-04-07T09:25:43Z</time></trkpt><trkpt lat="48.84833270889104" lon="2.6017342517299897"><ele>79.5</ele><time>2026-04-07T09:25:46Z</time></trkpt><trkpt lat="48.8483335657431" lon="2.6018615328439405"><ele>80.0</ele><time>2026-04-07T09:25:49Z</time></trkpt><trkpt lat="48.84835458915486" lon="2.6019528905731866"><ele>80.28571428571428</ele><time>2026-04-07T09:25:51Z</time></trkpt><trkpt lat="48.84837602874874" lon="2.602054908539369"><ele>80.57142857142857</ele><time>2026-04-07T09:25:54Z</time></trkpt><trkpt lat="48.848395089019355" lon="2.602158212931839"><ele>80.85714285714286</ele><time>2026-04-07T09:25:57Z</time></trkpt><trkpt lat="48.848414991751795" lon="2.602262620206121"><ele>81.14285714285714</ele><time>2026-04-07T09:26:00Z</time></trkpt><trkpt lat="48.84843854101245" lon="2.602375025582281"><ele>81.42857142857143</ele><time>2026-04-07T09:26:03Z</time></trkpt><trkpt lat="48.848465837132366" lon="2.6024889100613797"><ele>81.71428571428571</ele><time>2026-04-07T09:26:06Z</time></trkpt><trkpt lat="48.848487234596725" lon="2.6025829808656784"><ele>82.0</ele><time>2026-04-07T09:26:09Z</time></trkpt><trkpt lat="48.84849404706712" lon="2.602699340749321"><ele>82.28571428571428</ele><time>2026-04-07T09:26:12Z</time></trkpt><trkpt lat="48.84851167130469" lon="2.6028174564830513"><ele>82.57142857142857</ele><time>2026-04-07T09:26:15Z</time></trkpt><trkpt lat="48.84852398714293" lon="2.60291409088826"><ele>82.85714285714286</ele><time>2026-04-07T09:26:17Z</time></trkpt><trkpt lat="48.84850984661782" lon="2.6030086556956418"><ele>83.14285714285714</ele><time>2026-04-07T09:26:20Z</time></trkpt><trkpt lat="48.84853713137262" lon="2.6031110130766617"><ele>83.42857142857143</ele><time>2026-04-07T09:26:23Z</time></trkpt><trkpt lat="48.84856938662097" lon="2.603222768566"><ele>83.71428571428571</ele><time>2026-04-07T09:26:26Z</time></trkpt><trkpt lat="48.84858773166939" lon="2.6033346617869366"><ele>84.0</ele><time>2026-04-07T09:26:29Z</time></trkpt><trkpt lat="48.8486067834731" lon="2.6034549007003136"><ele>84.5</ele><time>2026-04-07T09:26:32Z</time></trkpt><trkpt lat="48.84862045627022" lon="2.6035897935833643"><ele>85.0</ele><time>2026-04-07T09:26:36Z</time></trkpt><trkpt lat="48.84863555217224" lon="2.6037090108459506"><ele>85.5</ele><time>2026-04-07T09:26:39Z</time></trkpt><trkpt lat="48.84863748205333" lon="2.603837834531599"><ele>86.0</ele><time>2026-04-07T09:26:42Z</time></trkpt><trkpt lat="48.848661431651145" lon="2.6039360715467477"><ele>86.5</ele><time>2026-04-07T09:26:45Z</time></trkpt><trkpt lat="48.84869044562899" lon="2.6040492378324807"><ele>87.0</ele><time>2026-04-07T09:26:48Z</time></trkpt><trkpt lat="48.8487038361569" lon="2.6041438936997596"><ele>87.28571428571428</ele><time>2026-04-07T09:26:51Z</time></trkpt><trkpt lat="48.848758646853746" lon="2.604218648848266"><ele>87.57142857142857</ele><time>2026-04-07T09:26:54Z</time></trkpt><trkpt lat="48.848809521586595" lon="2.604282531451498"><ele>87.85714285714286</ele><time>2026-04-07T09:26:57Z</time></trkpt><trkpt lat="48.848874598673895" lon="2.6042965385700625"><ele>88.14285714285714</ele><time>2026-04-07T09:26:59Z</time></trkpt><trkpt lat="48.84896128785417" lon="2.60430085107802"><ele>88.42857142857143</ele><time>2026-04-07T09:27:02Z</time></trkpt><trkpt lat="48.849051232626266" lon="2.6042913570381816"><ele>88.71428571428571</ele><time>2026-04-07T09:27:05Z</time></trkpt><trkpt lat="48.84911658741545" lon="2.604280248227198"><ele>89.0</ele><time>2026-04-07T09:27:07Z</time></trkpt><trkpt lat="48.84917878959204" lon="2.6043189108829083"><ele>89.0</ele><time>2026-04-07T09:27:10Z</time></trkpt><trkpt lat="48.849263753992375" lon="2.6042899990599797"><ele>89.0</ele><time>2026-04-07T09:27:13Z</time></trkpt><trkpt lat="48.84933988261799" lon="2.604285204177258"><ele>89.0</ele><time>2026-04-07T09:27:15Z</time></trkpt><trkpt lat="48.84942850142499" lon="2.604282380740237"><ele>89.0</ele><time>2026-04-07T09:27:18Z</time></trkpt><trkpt lat="48.84951253400846" lon="2.604263456312557"><ele>89.0</ele><time>2026-04-07T09:27:21Z</time></trkpt><trkpt lat="48.84959209104436" lon="2.6042714951584887"><ele>89.0</ele><time>2026-04-07T09:27:23.999Z</time></trkpt><trkpt lat="48.84966295214763" lon="2.6042657638189612"><ele>88.57142857142857</ele><time>2026-04-07T09:27:25.999Z</time></trkpt><trkpt lat="48.849740062694394" lon="2.604264836711481"><ele>88.14285714285714</ele><time>2026-04-07T09:27:28.999Z</time></trkpt><trkpt lat="48.849822230415086" lon="2.6042488463520725"><ele>87.71428571428572</ele><time>2026-04-07T09:27:31.999Z</time></trkpt><trkpt lat="48.849890566174004" lon="2.6042403057641557"><ele>87.28571428571428</ele><time>2026-04-07T09:27:33.999Z</time></trkpt><trkpt lat="48.84997043433068" lon="2.6042518019481844"><ele>86.85714285714286</ele><time>2026-04-07T09:27:36.999Z</time></trkpt><trkpt lat="48.85003250916274" lon="2.6042256122641656"><ele>86.42857142857143</ele><time>2026-04-07T09:27:39Z</time></trkpt><trkpt lat="48.85009554637166" lon="2.604225571207422"><ele>86.0</ele><time>2026-04-07T09:27:41Z</time></trkpt><trkpt lat="48.85016030632466" lon="2.6042248700008175"><ele>85.66666666666667</ele><time>2026-04-07T09:27:43Z</time></trkpt><trkpt lat="48.850249121375086" lon="2.604226754726639"><ele>85.33333333333334</ele><time>2026-04-07T09:27:46Z</time></trkpt><trkpt lat="48.85031368561852" lon="2.604209228680447"><ele>85.0</ele><time>2026-04-07T09:27:48Z</time></trkpt><trkpt lat="48.850386192583855" lon="2.6041805432794405"><ele>84.66666666666667</ele><time>2026-04-07T09:27:50Z</time></trkpt><trkpt lat="48.85046161011528" lon="2.6042261074410114"><ele>84.33333333333333</ele><time>2026-04-07T09:27:52Z</time></trkpt><trkpt lat="48.85051928831871" lon="2.604187166573672"><ele>84.0</ele><time>2026-04-07T09:27:54Z</time></trkpt><trkpt lat="48.850610680739464" lon="2.6041848231839038"><ele>84.0</ele><time>2026-04-07T09:27:57Z</time></trkpt><trkpt lat="48.85068545047809" lon="2.6041806120379936"><ele>84.0</ele><time>2026-04-07T09:28:00Z</time></trkpt><trkpt lat="48.85075568117859" lon="2.604110002385199"><ele>84.0</ele><time>2026-04-07T09:28:03Z</time></trkpt><trkpt lat="48.85083506037893" lon="2.60415301001925"><ele>84.0</ele><time>2026-04-07T09:28:06Z</time></trkpt><trkpt lat="48.850902213136244" lon="2.604145572769327"><ele>84.0</ele><time>2026-04-07T09:28:08Z</time></trkpt><trkpt lat="48.85098918643976" lon="2.604136042138702"><ele>84.0</ele><time>2026-04-07T09:28:11Z</time></trkpt><trkpt lat="48.85107138275951" lon="2.604127023484159"><ele>83.5</ele><time>2026-04-07T09:28:14Z</time></trkpt><trkpt lat="48.85114356154322" lon="2.604128425565955"><ele>83.0</ele><time>2026-04-07T09:28:16Z</time></trkpt><trkpt lat="48.85121442261402" lon="2.6041211904216723"><ele>82.5</ele><time>2026-04-07T09:28:19Z</time></trkpt><trkpt lat="48.851304925184564" lon="2.6041301247955024"><ele>82.0</ele><time>2026-04-07T09:28:22Z</time></trkpt><trkpt lat="48.85139516076504" lon="2.6041076337418514"><ele>81.5</ele><time>2026-04-07T09:28:25Z</time></trkpt><trkpt lat="48.851478731470955" lon="2.60409810217162"><ele>81.0</ele><time>2026-04-07T09:28:28Z</time></trkpt><trkpt lat="48.851570806548864" lon="2.6040967778329125"><ele>81.0</ele><time>2026-04-07T09:28:31Z</time></trkpt><trkpt lat="48.851633794592715" lon="2.60410025759533"><ele>81.0</ele><time>2026-04-07T09:28:33Z</time></trkpt><trkpt lat="48.851712889806315" lon="2.6040746042295786"><ele>81.0</ele><time>2026-04-07T09:28:36Z</time></trkpt><trkpt lat="48.8517881198067" lon="2.6040092100772703"><ele>81.0</ele><time>2026-04-07T09:28:39Z</time></trkpt><trkpt lat="48.85184821908494" lon="2.6039095009999773"><ele>81.0</ele><time>2026-04-07T09:28:42Z</time></trkpt><trkpt lat="48.85190871507559" lon="2.603848663863298"><ele>81.0</ele><time>2026-04-07T09:28:45Z</time></trkpt><trkpt lat="48.85197572195604" lon="2.6037629004709317"><ele>80.57142857142857</ele><time>2026-04-07T09:28:48Z</time></trkpt><trkpt lat="48.852052150300516" lon="2.603730220774004"><ele>80.14285714285714</ele><time>2026-04-07T09:28:51Z</time></trkpt><trkpt lat="48.85213167432309" lon="2.603701042663291"><ele>79.71428571428572</ele><time>2026-04-07T09:28:54Z</time></trkpt><trkpt lat="48.852196871433094" lon="2.603692891375934"><ele>79.28571428571428</ele><time>2026-04-07T09:28:56Z</time></trkpt><trkpt lat="48.85227227436974" lon="2.6036701597941145"><ele>78.85714285714285</ele><time>2026-04-07T09:28:59Z</time></trkpt><trkpt lat="48.85229451206274" lon="2.6037898437405627"><ele>78.42857142857143</ele><time>2026-04-07T09:29:04Z</time></trkpt><trkpt lat="48.852305734854795" lon="2.6038849207406707"><ele>78.0</ele><time>2026-04-07T09:29:06Z</time></trkpt><trkpt lat="48.8523112949432" lon="2.604014124130618"><ele>78.0</ele><time>2026-04-07T09:29:09Z</time></trkpt><trkpt lat="48.852310967035436" lon="2.6041354133918078"><ele>78.0</ele><time>2026-04-07T09:29:12Z</time></trkpt><trkpt lat="48.85231741908276" lon="2.6042567786836615"><ele>78.0</ele><time>2026-04-07T09:29:15Z</time></trkpt><trkpt lat="48.85231440981121" lon="2.604376675201729"><ele>78.0</ele><time>2026-04-07T09:29:18Z</time></trkpt><trkpt lat="48.85230523367071" lon="2.604494961507969"><ele>78.0</ele><time>2026-04-07T09:29:21Z</time></trkpt><trkpt lat="48.852320707381075" lon="2.604593988169486"><ele>78.0</ele><time>2026-04-07T09:29:23Z</time></trkpt><trkpt lat="48.85229976665837" lon="2.60469919857422"><ele>78.0</ele><time>2026-04-07T09:29:26Z</time></trkpt><trkpt lat="48.85227078455381" lon="2.604792176405078"><ele>78.0</ele><time>2026-04-07T09:29:29Z</time></trkpt><trkpt lat="48.85218927994992" lon="2.6048294814961803"><ele>78.0</ele><time>2026-04-07T09:29:32Z</time></trkpt><trkpt lat="48.85210492922632" lon="2.6048290531295057"><ele>78.0</ele><time>2026-04-07T09:29:35Z</time></trkpt><trkpt lat="48.85202443960882" lon="2.60477086406477"><ele>78.0</ele><time>2026-04-07T09:29:38Z</time></trkpt><trkpt lat="48.85196498172352" lon="2.6046838369885386"><ele>78.0</ele><time>2026-04-07T09:29:40.999Z</time></trkpt><trkpt lat="48.851900230525786" lon="2.604627572050929"><ele>78.0</ele><time>2026-04-07T09:29:44Z</time></trkpt><trkpt lat="48.85183555303164" lon="2.604564823019389"><ele>78.0</ele><time>2026-04-07T09:29:47Z</time></trkpt><trkpt lat="48.85176688102385" lon="2.604509843557588"><ele>78.0</ele><time>2026-04-07T09:29:50Z</time></trkpt><trkpt lat="48.8517099512681" lon="2.604458454138697"><ele>78.0</ele><time>2026-04-07T09:29:53Z</time></trkpt><trkpt lat="48.85161950337895" lon="2.6044372602498296"><ele>78.0</ele><time>2026-04-07T09:29:56Z</time></trkpt><trkpt lat="48.851555614057624" lon="2.604452026295676"><ele>78.0</ele><time>2026-04-07T09:29:58Z</time></trkpt><trkpt lat="48.85147207324906" lon="2.6044800894050986"><ele>78.71428571428572</ele><time>2026-04-07T09:30:01Z</time></trkpt><trkpt lat="48.8514027669229" lon="2.6045120229025582"><ele>79.42857142857142</ele><time>2026-04-07T09:30:04Z</time></trkpt><trkpt lat="48.851325363197866" lon="2.604497675995935"><ele>80.14285714285714</ele><time>2026-04-07T09:30:07Z</time></trkpt><trkpt lat="48.85125981935343" lon="2.604522357913619"><ele>80.85714285714286</ele><time>2026-04-07T09:30:10Z</time></trkpt><trkpt lat="48.851191593526394" lon="2.60452909868577"><ele>81.57142857142858</ele><time>2026-04-07T09:30:13Z</time></trkpt><trkpt lat="48.851128838943076" lon="2.6045082982103867"><ele>82.28571428571428</ele><time>2026-04-07T09:30:16Z</time></trkpt><trkpt lat="48.85106305974607" lon="2.604519990633492"><ele>83.0</ele><time>2026-04-07T09:30:18Z</time></trkpt><trkpt lat="48.8509877159837" lon="2.604547308288045"><ele>83.33333333333334</ele><time>2026-04-07T09:30:21Z</time></trkpt><trkpt lat="48.85092246065467" lon="2.6045483026710765"><ele>83.66666666666667</ele><time>2026-04-07T09:30:24Z</time></trkpt><trkpt lat="48.85084034529878" lon="2.604550118077154"><ele>84.0</ele><time>2026-04-07T09:30:27Z</time></trkpt><trkpt lat="48.85076473553313" lon="2.604548058541347"><ele>84.33333333333333</ele><time>2026-04-07T09:30:30Z</time></trkpt><trkpt lat="48.85068256785001" lon="2.6045615755290292"><ele>84.66666666666666</ele><time>2026-04-07T09:30:33Z</time></trkpt><trkpt lat="48.850613059613046" lon="2.604550311679954"><ele>85.0</ele><time>2026-04-07T09:30:36Z</time></trkpt><trkpt lat="48.850533060037655" lon="2.6045556030150134"><ele>85.0</ele><time>2026-04-07T09:30:39Z</time></trkpt><trkpt lat="48.85044843052999" lon="2.604556203820903"><ele>85.0</ele><time>2026-04-07T09:30:42Z</time></trkpt><trkpt lat="48.85037484030637" lon="2.604591931816136"><ele>85.0</ele><time>2026-04-07T09:30:45Z</time></trkpt><trkpt lat="48.85028338454282" lon="2.6045844295109366"><ele>85.0</ele><time>2026-04-07T09:30:48Z</time></trkpt><trkpt lat="48.85021520892534" lon="2.6045980892366094"><ele>85.0</ele><time>2026-04-07T09:30:51Z</time></trkpt><trkpt lat="48.85013287767054" lon="2.6045885386645264"><ele>85.0</ele><time>2026-04-07T09:30:54Z</time></trkpt><trkpt lat="48.850062399719505" lon="2.604610709223316"><ele>85.33333333333333</ele><time>2026-04-07T09:30:57Z</time></trkpt><trkpt lat="48.84998111505978" lon="2.604632584002719"><ele>85.66666666666666</ele><time>2026-04-07T09:31:00Z</time></trkpt><trkpt lat="48.849898832115876" lon="2.6046200536937314"><ele>86.0</ele><time>2026-04-07T09:31:03Z</time></trkpt><trkpt lat="48.84983392899621" lon="2.6046049508551286"><ele>86.33333333333333</ele><time>2026-04-07T09:31:06Z</time></trkpt><trkpt lat="48.84975075058241" lon="2.6046228327450796"><ele>86.66666666666667</ele><time>2026-04-07T09:31:09Z</time></trkpt><trkpt lat="48.84968046562837" lon="2.6046105763030916"><ele>87.0</ele><time>2026-04-07T09:31:12Z</time></trkpt><trkpt lat="48.849618527092694" lon="2.6046360371106525"><ele>87.0</ele><time>2026-04-07T09:31:14Z</time></trkpt><trkpt lat="48.84955106700595" lon="2.6046499051430025"><ele>87.0</ele><time>2026-04-07T09:31:17Z</time></trkpt><trkpt lat="48.84947339014007" lon="2.60462834676231"><ele>87.0</ele><time>2026-04-07T09:31:20Z</time></trkpt><trkpt lat="48.84939217255623" lon="2.604624649328762"><ele>87.0</ele><time>2026-04-07T09:31:23Z</time></trkpt><trkpt lat="48.84932237991878" lon="2.60463588180703"><ele>87.0</ele><time>2026-04-07T09:31:26Z</time></trkpt><trkpt lat="48.84924434609808" lon="2.604686644264423"><ele>87.0</ele><time>2026-04-07T09:31:29Z</time></trkpt><trkpt lat="48.84916717335341" lon="2.6046817490466045"><ele>87.5</ele><time>2026-04-07T09:31:32Z</time></trkpt><trkpt lat="48.84907917652526" lon="2.604686255028392"><ele>88.0</ele><time>2026-04-07T09:31:35Z</time></trkpt><trkpt lat="48.84899266400444" lon="2.6047060201132908"><ele>88.5</ele><time>2026-04-07T09:31:38.999Z</time></trkpt><trkpt lat="48.848912838913755" lon="2.604702158954366"><ele>89.0</ele><time>2026-04-07T09:31:41.999Z</time></trkpt><trkpt lat="48.848841005185236" lon="2.6047040160511594"><ele>89.5</ele><time>2026-04-07T09:31:43.999Z</time></trkpt><trkpt lat="48.84875907227237" lon="2.6046958683555705"><ele>90.0</ele><time>2026-04-07T09:31:46.999Z</time></trkpt><trkpt lat="48.84874956752563" lon="2.6046001897364626"><ele>89.83333333333333</ele><time>2026-04-07T09:31:48.999Z</time></trkpt><trkpt lat="48.84875154109191" lon="2.604466709526746"><ele>89.66666666666667</ele><time>2026-04-07T09:31:52Z</time></trkpt><trkpt lat="48.84874346652487" lon="2.604339259055876"><ele>89.5</ele><time>2026-04-07T09:31:55Z</time></trkpt><trkpt lat="48.84874923019484" lon="2.6042187761973943"><ele>89.33333333333334</ele><time>2026-04-07T09:31:58Z</time></trkpt><trkpt lat="48.84871066540536" lon="2.6041137085902037"><ele>89.16666666666667</ele><time>2026-04-07T09:32:01Z</time></trkpt><trkpt lat="48.84870686118614" lon="2.6040014009334937"><ele>89.0</ele><time>2026-04-07T09:32:04Z</time></trkpt><trkpt lat="48.848679119860215" lon="2.603909478180853"><ele>89.0</ele><time>2026-04-07T09:32:07Z</time></trkpt><trkpt lat="48.84866037149514" lon="2.603802910971676"><ele>89.0</ele><time>2026-04-07T09:32:10Z</time></trkpt><trkpt lat="48.84864389309415" lon="2.6036690628843924"><ele>89.0</ele><time>2026-04-07T09:32:13Z</time></trkpt><trkpt lat="48.84862413327586" lon="2.6035630961633927"><ele>89.0</ele><time>2026-04-07T09:32:16Z</time></trkpt><trkpt lat="48.84859984888232" lon="2.603436046774634"><ele>89.0</ele><time>2026-04-07T09:32:18Z</time></trkpt><trkpt lat="48.848602477078785" lon="2.603320943618349"><ele>89.0</ele><time>2026-04-07T09:32:21Z</time></trkpt><trkpt lat="48.8485669133765" lon="2.6032337328023467"><ele>88.66666666666667</ele><time>2026-04-07T09:32:23Z</time></trkpt><trkpt lat="48.84856146358045" lon="2.6031378712404813"><ele>88.33333333333334</ele><time>2026-04-07T09:32:25Z</time></trkpt><trkpt lat="48.84854244159713" lon="2.6029977887617743"><ele>88.0</ele><time>2026-04-07T09:32:28Z</time></trkpt><trkpt lat="48.84851409461231" lon="2.602906652634208"><ele>87.66666666666667</ele><time>2026-04-07T09:32:30Z</time></trkpt><trkpt lat="48.84850189375304" lon="2.6027825245954164"><ele>87.33333333333333</ele><time>2026-04-07T09:32:33Z</time></trkpt><trkpt lat="48.84848305253795" lon="2.6026762136617205"><ele>87.0</ele><time>2026-04-07T09:32:35Z</time></trkpt><trkpt lat="48.848459602710136" lon="2.6025533987451324"><ele>86.16666666666667</ele><time>2026-04-07T09:32:38Z</time></trkpt><trkpt lat="48.84844904631614" lon="2.6024278462417274"><ele>85.33333333333333</ele><time>2026-04-07T09:32:41Z</time></trkpt><trkpt lat="48.84842844413311" lon="2.6023114005998633"><ele>84.5</ele><time>2026-04-07T09:32:44Z</time></trkpt><trkpt lat="48.84841114059626" lon="2.6022049735807165"><ele>83.66666666666666</ele><time>2026-04-07T09:32:46Z</time></trkpt><trkpt lat="48.8484066136977" lon="2.602100138006443"><ele>82.83333333333333</ele><time>2026-04-07T09:32:49Z</time></trkpt><trkpt lat="48.84840039388493" lon="2.6019907772339335"><ele>82.0</ele><time>2026-04-07T09:32:52Z</time></trkpt><trkpt lat="48.84837979889284" lon="2.6018824647262466"><ele>81.66666666666666</ele><time>2026-04-07T09:32:55Z</time></trkpt><trkpt lat="48.84836161309701" lon="2.601777757724324"><ele>81.33333333333333</ele><time>2026-04-07T09:32:57Z</time></trkpt><trkpt lat="48.84833801120854" lon="2.6016449756685094"><ele>81.0</ele><time>2026-04-07T09:33:00Z</time></trkpt><trkpt lat="48.848319809635804" lon="2.6015208966248125"><ele>80.66666666666667</ele><time>2026-04-07T09:33:03Z</time></trkpt><trkpt lat="48.84828679725004" lon="2.6014207586825417"><ele>80.33333333333334</ele><time>2026-04-07T09:33:06Z</time></trkpt><trkpt lat="48.8482528000751" lon="2.6013107711190893"><ele>80.0</ele><time>2026-04-07T09:33:09Z</time></trkpt><trkpt lat="48.848181524728055" lon="2.601235401736044"><ele>80.0</ele><time>2026-04-07T09:33:12Z</time></trkpt><trkpt lat="48.84813789902283" lon="2.6011345347813606"><ele>80.0</ele><time>2026-04-07T09:33:15Z</time></trkpt><trkpt lat="48.84805907833899" lon="2.6011425009145563"><ele>80.0</ele><time>2026-04-07T09:33:18Z</time></trkpt><trkpt lat="48.847980831790046" lon="2.6011505420353904"><ele>80.0</ele><time>2026-04-07T09:33:21Z</time></trkpt><trkpt lat="48.84790971924613" lon="2.601173311997865"><ele>80.0</ele><time>2026-04-07T09:33:24Z</time></trkpt><trkpt lat="48.84784633459285" lon="2.601168341041711"><ele>80.0</ele><time>2026-04-07T09:33:26Z</time></trkpt><trkpt lat="48.84780283984572" lon="2.6010842543846664"><ele>80.0</ele><time>2026-04-07T09:33:29Z</time></trkpt><trkpt lat="48.847805913511024" lon="2.600970517150497"><ele>79.5</ele><time>2026-04-07T09:33:32Z</time></trkpt><trkpt lat="48.84780046098487" lon="2.6008452177305705"><ele>79.0</ele><time>2026-04-07T09:33:35Z</time></trkpt><trkpt lat="48.84779914946506" lon="2.6007214004103156"><ele>78.5</ele><time>2026-04-07T09:33:38Z</time></trkpt><trkpt lat="48.84779468711001" lon="2.6006249529525505"><ele>78.0</ele><time>2026-04-07T09:33:40Z</time></trkpt><trkpt lat="48.84779052804614" lon="2.6004869232084893"><ele>77.5</ele><time>2026-04-07T09:33:43Z</time></trkpt><trkpt lat="48.847791165513364" lon="2.6003902272356556"><ele>77.0</ele><time>2026-04-07T09:33:45Z</time></trkpt><trkpt lat="48.84779015115469" lon="2.6002629440752676"><ele>75.83333333333334</ele><time>2026-04-07T09:33:48Z</time></trkpt><trkpt lat="48.84779281066341" lon="2.6001338103279372"><ele>74.66666666666667</ele><time>2026-04-07T09:33:51Z</time></trkpt><trkpt lat="48.84778215875597" lon="2.5999892885760643"><ele>73.5</ele><time>2026-04-07T09:33:53.999Z</time></trkpt><trkpt lat="48.84778985123421" lon="2.5998554833540823"><ele>72.33333333333333</ele><time>2026-04-07T09:33:57Z</time></trkpt><trkpt lat="48.84776335615466" lon="2.5997670518305487"><ele>71.16666666666666</ele><time>2026-04-07T09:33:59Z</time></trkpt><trkpt lat="48.84773961935807" lon="2.5996314731455987"><ele>70.0</ele><time>2026-04-07T09:34:02Z</time></trkpt><trkpt lat="48.847703226887575" lon="2.599532602495891"><ele>70.0</ele><time>2026-04-07T09:34:05Z</time></trkpt><trkpt lat="48.847643391391685" lon="2.5994371917827848"><ele>70.0</ele><time>2026-04-07T09:34:08Z</time></trkpt><trkpt lat="48.847597378358195" lon="2.5993325189555576"><ele>70.0</ele><time>2026-04-07T09:34:11Z</time></trkpt><trkpt lat="48.84756668072711" lon="2.5992464370892425"><ele>70.0</ele><time>2026-04-07T09:34:13Z</time></trkpt><trkpt lat="48.84753719790208" lon="2.599119214562022"><ele>70.0</ele><time>2026-04-07T09:34:16Z</time></trkpt><trkpt lat="48.84750698367157" lon="2.599026115450917"><ele>70.0</ele><time>2026-04-07T09:34:18Z</time></trkpt><trkpt lat="48.84747915367666" lon="2.598931398736247"><ele>70.0</ele><time>2026-04-07T09:34:20Z</time></trkpt><trkpt lat="48.84742250977093" lon="2.5988543124588843"><ele>70.0</ele><time>2026-04-07T09:34:22Z</time></trkpt><trkpt lat="48.84735684536262" lon="2.5987911305002394"><ele>70.0</ele><time>2026-04-07T09:34:25Z</time></trkpt><trkpt lat="48.84727680101055" lon="2.598738330764687"><ele>70.0</ele><time>2026-04-07T09:34:28Z</time></trkpt><trkpt lat="48.84720479333655" lon="2.598674906958492"><ele>70.0</ele><time>2026-04-07T09:34:31Z</time></trkpt><trkpt lat="48.847126044343874" lon="2.5986325064242304"><ele>70.0</ele><time>2026-04-07T09:34:34Z</time></trkpt><trkpt lat="48.847068362600204" lon="2.5985638015202706"><ele>70.16666666666666</ele><time>2026-04-07T09:34:37Z</time></trkpt><trkpt lat="48.847002772684995" lon="2.5984856541689196"><ele>70.33333333333333</ele><time>2026-04-07T09:34:40Z</time></trkpt><trkpt lat="48.84692076524654" lon="2.5984471883437523"><ele>70.5</ele><time>2026-04-07T09:34:43Z</time></trkpt><trkpt lat="48.846840697440044" lon="2.5983663675912303"><ele>70.66666666666667</ele><time>2026-04-07T09:34:46Z</time></trkpt><trkpt lat="48.8467750115839" lon="2.598355523128627"><ele>70.83333333333334</ele><time>2026-04-07T09:34:49Z</time></trkpt><trkpt lat="48.846684280185" lon="2.598345875788568"><ele>71.0</ele><time>2026-04-07T09:34:52Z</time></trkpt><trkpt lat="48.84660902499044" lon="2.5983358609882505"><ele>71.66666666666667</ele><time>2026-04-07T09:34:55Z</time></trkpt><trkpt lat="48.84655053377611" lon="2.598296432131149"><ele>72.33333333333334</ele><time>2026-04-07T09:34:58Z</time></trkpt><trkpt lat="48.84648308443297" lon="2.5983212887105647"><ele>73.0</ele><time>2026-04-07T09:35:00Z</time></trkpt><trkpt lat="48.84639942955148" lon="2.598344825737789"><ele>73.66666666666667</ele><time>2026-04-07T09:35:03Z</time></trkpt><trkpt lat="48.8463085091668" lon="2.5983514270869588"><ele>74.33333333333333</ele><time>2026-04-07T09:35:06Z</time></trkpt><trkpt lat="48.84623416374387" lon="2.5983701365897325"><ele>75.0</ele><time>2026-04-07T09:35:09Z</time></trkpt><trkpt lat="48.8461616541216" lon="2.5983790597047074"><ele>75.0</ele><time>2026-04-07T09:35:12Z</time></trkpt><trkpt lat="48.846076100513855" lon="2.59841805723194"><ele>75.0</ele><time>2026-04-07T09:35:15Z</time></trkpt><trkpt lat="48.845982799859826" lon="2.598414262689213"><ele>75.0</ele><time>2026-04-07T09:35:18Z</time></trkpt><trkpt lat="48.845899894370525" lon="2.5984167529501065"><ele>75.0</ele><time>2026-04-07T09:35:21Z</time></trkpt><trkpt lat="48.84584595422576" lon="2.5984703609561333"><ele>75.0</ele><time>2026-04-07T09:35:23Z</time></trkpt><trkpt lat="48.84577443420775" lon="2.598444234245528"><ele>75.0</ele><time>2026-04-07T09:35:26Z</time></trkpt><trkpt lat="48.845688255027554" lon="2.5984679291925774"><ele>75.66666666666667</ele><time>2026-04-07T09:35:29Z</time></trkpt><trkpt lat="48.84560702419432" lon="2.598446615917714"><ele>76.33333333333333</ele><time>2026-04-07T09:35:32Z</time></trkpt><trkpt lat="48.8455246107977" lon="2.59848245482689"><ele>77.0</ele><time>2026-04-07T09:35:35Z</time></trkpt><trkpt lat="48.845441400531996" lon="2.598491891091404"><ele>77.66666666666666</ele><time>2026-04-07T09:35:38Z</time></trkpt><trkpt lat="48.84536669042557" lon="2.598492546122014"><ele>78.33333333333333</ele><time>2026-04-07T09:35:41Z</time></trkpt><trkpt lat="48.84529843816754" lon="2.598510464857966"><ele>79.0</ele><time>2026-04-07T09:35:44Z</time></trkpt><trkpt lat="48.84522350194264" lon="2.5984932621040073"><ele>79.00000000000001</ele><time>2026-04-07T09:35:47Z</time></trkpt><trkpt lat="48.84513936672189" lon="2.5985067510685833"><ele>79.0</ele><time>2026-04-07T09:35:50Z</time></trkpt><trkpt lat="48.845085990736976" lon="2.598564296268874"><ele>79.0</ele><time>2026-04-07T09:35:52Z</time></trkpt><trkpt lat="48.84501309409761" lon="2.5985762778469175"><ele>79.0</ele><time>2026-04-07T09:35:55Z</time></trkpt><trkpt lat="48.84492799115276" lon="2.5985807506191305"><ele>79.0</ele><time>2026-04-07T09:35:58Z</time></trkpt><trkpt lat="48.84485531984119" lon="2.5985897413554384"><ele>79.00000000000001</ele><time>2026-04-07T09:36:00.999Z</time></trkpt><trkpt lat="48.84478791726199" lon="2.5985892706623095"><ele>79.0</ele><time>2026-04-07T09:36:04Z</time></trkpt><trkpt lat="48.84471211025288" lon="2.5986289776985436"><ele>78.83333333333333</ele><time>2026-04-07T09:36:07Z</time></trkpt><trkpt lat="48.84464310904038" lon="2.598647764810293"><ele>78.66666666666666</ele><time>2026-04-07T09:36:10Z</time></trkpt><trkpt lat="48.84456010149035" lon="2.5986705487080592"><ele>78.5</ele><time>2026-04-07T09:36:13Z</time></trkpt><trkpt lat="48.84448345978133" lon="2.598710949430852"><ele>78.33333333333333</ele><time>2026-04-07T09:36:16Z</time></trkpt><trkpt lat="48.84440329090928" lon="2.5987315081116265"><ele>78.16666666666667</ele><time>2026-04-07T09:36:19Z</time></trkpt><trkpt lat="48.84432464370597" lon="2.5987587040135867"><ele>78.0</ele><time>2026-04-07T09:36:22Z</time></trkpt><trkpt lat="48.84425048164848" lon="2.5987625259523512"><ele>78.0</ele><time>2026-04-07T09:36:25Z</time></trkpt><trkpt lat="48.844173908839714" lon="2.5987877809022293"><ele>78.0</ele><time>2026-04-07T09:36:28Z</time></trkpt><trkpt lat="48.8440844685625" lon="2.598809219136821"><ele>78.0</ele><time>2026-04-07T09:36:31Z</time></trkpt><trkpt lat="48.84402069980924" lon="2.5988132199435543"><ele>78.0</ele><time>2026-04-07T09:36:33Z</time></trkpt><trkpt lat="48.843937289708514" lon="2.598845782084038"><ele>78.0</ele><time>2026-04-07T09:36:36Z</time></trkpt><trkpt lat="48.84385916900601" lon="2.5988847368329497"><ele>78.0</ele><time>2026-04-07T09:36:39Z</time></trkpt><trkpt lat="48.84377915294229" lon="2.5989063890983477"><ele>78.0</ele><time>2026-04-07T09:36:42Z</time></trkpt><trkpt lat="48.84370007198888" lon="2.5989300636406036"><ele>78.0</ele><time>2026-04-07T09:36:45Z</time></trkpt><trkpt lat="48.843619301724104" lon="2.598947238824951"><ele>78.0</ele><time>2026-04-07T09:36:48Z</time></trkpt><trkpt lat="48.84354023789233" lon="2.5989651032994416"><ele>78.0</ele><time>2026-04-07T09:36:51Z</time></trkpt><trkpt lat="48.843460770907754" lon="2.59898924295085"><ele>78.0</ele><time>2026-04-07T09:36:54Z</time></trkpt><trkpt lat="48.84339320940403" lon="2.5989960494823627"><ele>78.0</ele><time>2026-04-07T09:36:57Z</time></trkpt><trkpt lat="48.84331334297225" lon="2.599015330191125"><ele>78.16666666666667</ele><time>2026-04-07T09:37:00Z</time></trkpt><trkpt lat="48.84324046107347" lon="2.599062780683862"><ele>78.33333333333333</ele><time>2026-04-07T09:37:03Z</time></trkpt><trkpt lat="48.843148345904474" lon="2.5990483401396904"><ele>78.5</ele><time>2026-04-07T09:37:06Z</time></trkpt><trkpt lat="48.84307471177293" lon="2.5990422910448734"><ele>78.66666666666666</ele><time>2026-04-07T09:37:09Z</time></trkpt><trkpt lat="48.84301032017255" lon="2.5990604552065197"><ele>78.83333333333333</ele><time>2026-04-07T09:37:11Z</time></trkpt><trkpt lat="48.84292433052478" lon="2.5990866780191464"><ele>79.0</ele><time>2026-04-07T09:37:14Z</time></trkpt><trkpt lat="48.842849384622475" lon="2.5991223727565074"><ele>79.0</ele><time>2026-04-07T09:37:17Z</time></trkpt><trkpt lat="48.84276995931498" lon="2.5990968688767917"><ele>79.0</ele><time>2026-04-07T09:37:20Z</time></trkpt><trkpt lat="48.842684844937914" lon="2.5991238662907854"><ele>79.0</ele><time>2026-04-07T09:37:23Z</time></trkpt><trkpt lat="48.84262307854366" lon="2.5991568738687927"><ele>79.0</ele><time>2026-04-07T09:37:25Z</time></trkpt><trkpt lat="48.8425429714625" lon="2.5991867542275666"><ele>79.0</ele><time>2026-04-07T09:37:28Z</time></trkpt><trkpt lat="48.842472597185136" lon="2.599186149531558"><ele>79.0</ele><time>2026-04-07T09:37:31Z</time></trkpt><trkpt lat="48.84239066603703" lon="2.599185844611416"><ele>79.33333333333333</ele><time>2026-04-07T09:37:34Z</time></trkpt><trkpt lat="48.842351420036515" lon="2.599052402020913"><ele>79.66666666666666</ele><time>2026-04-07T09:37:37Z</time></trkpt><trkpt lat="48.842338781974036" lon="2.5989281694697532"><ele>80.0</ele><time>2026-04-07T09:37:40Z</time></trkpt><trkpt lat="48.8423425389513" lon="2.5987956055765036"><ele>80.33333333333333</ele><time>2026-04-07T09:37:43Z</time></trkpt><trkpt lat="48.84236632032788" lon="2.5986670853849523"><ele>80.66666666666667</ele><time>2026-04-07T09:37:46Z</time></trkpt><trkpt lat="48.842365401298736" lon="2.5985327844881594"><ele>81.0</ele><time>2026-04-07T09:37:50Z</time></trkpt><trkpt lat="48.842386275682394" lon="2.598416424019265"><ele>81.0</ele><time>2026-04-07T09:37:53Z</time></trkpt><trkpt lat="48.84239750812078" lon="2.5983004057236005"><ele>81.0</ele><time>2026-04-07T09:37:56Z</time></trkpt><trkpt lat="48.842400654334824" lon="2.5981652354321705"><ele>81.0</ele><time>2026-04-07T09:37:59Z</time></trkpt><trkpt lat="48.842421035141875" lon="2.5980448732093344"><ele>81.0</ele><time>2026-04-07T09:38:01.999Z</time></trkpt><trkpt lat="48.842508820736995" lon="2.5980259988363255"><ele>81.0</ele><time>2026-04-07T09:38:04.999Z</time></trkpt><trkpt lat="48.84258597549906" lon="2.5980572431799116"><ele>81.0</ele><time>2026-04-07T09:38:08Z</time></trkpt><trkpt lat="48.84266669169973" lon="2.598052854186961"><ele>81.0</ele><time>2026-04-07T09:38:11Z</time></trkpt><trkpt lat="48.8427490574659" lon="2.5980239560349556"><ele>81.0</ele><time>2026-04-07T09:38:14Z</time></trkpt><trkpt lat="48.84281303025763" lon="2.5980074398038657"><ele>81.0</ele><time>2026-04-07T09:38:16Z</time></trkpt><trkpt lat="48.84288668057252" lon="2.5979628225764713"><ele>81.0</ele><time>2026-04-07T09:38:19Z</time></trkpt><trkpt lat="48.8429526781022" lon="2.597921705997323"><ele>81.0</ele><time>2026-04-07T09:38:21Z</time></trkpt><trkpt lat="48.84301947148471" lon="2.5978528651344317"><ele>81.0</ele><time>2026-04-07T09:38:24Z</time></trkpt><trkpt lat="48.843066942649344" lon="2.597778875927276"><ele>81.0</ele><time>2026-04-07T09:38:26Z</time></trkpt><trkpt lat="48.843127034185294" lon="2.5976773855716413"><ele>81.5</ele><time>2026-04-07T09:38:29Z</time></trkpt><trkpt lat="48.8431882740419" lon="2.597590163123513"><ele>82.0</ele><time>2026-04-07T09:38:32Z</time></trkpt><trkpt lat="48.84317992446762" lon="2.5974605932758066"><ele>82.5</ele><time>2026-04-07T09:38:35Z</time></trkpt><trkpt lat="48.84318518757495" lon="2.5973250449114764"><ele>83.0</ele><time>2026-04-07T09:38:38Z</time></trkpt><trkpt lat="48.843180680571464" lon="2.5972284334485773"><ele>83.5</ele><time>2026-04-07T09:38:40Z</time></trkpt><trkpt lat="48.84321799749036" lon="2.5971446065990595"><ele>84.0</ele><time>2026-04-07T09:38:42Z</time></trkpt><trkpt lat="48.84328035175071" lon="2.5970685633012462"><ele>84.5</ele><time>2026-04-07T09:38:45Z</time></trkpt><trkpt lat="48.84332839274533" lon="2.596980926515452"><ele>85.0</ele><time>2026-04-07T09:38:48Z</time></trkpt><trkpt lat="48.84339474588337" lon="2.5969133731085483"><ele>85.5</ele><time>2026-04-07T09:38:51Z</time></trkpt><trkpt lat="48.84345156977171" lon="2.5968518943663015"><ele>86.0</ele><time>2026-04-07T09:38:53Z</time></trkpt><trkpt lat="48.84353000946476" lon="2.5967772219105414"><ele>86.5</ele><time>2026-04-07T09:38:56Z</time></trkpt><trkpt lat="48.843601219886345" lon="2.5966836037922887"><ele>87.0</ele><time>2026-04-07T09:38:59Z</time></trkpt><trkpt lat="48.84366222035807" lon="2.596591026281875"><ele>87.0</ele><time>2026-04-07T09:39:02Z</time></trkpt><trkpt lat="48.84373532738184" lon="2.596522530636158"><ele>87.0</ele><time>2026-04-07T09:39:05Z</time></trkpt><trkpt lat="48.84381804197915" lon="2.59652318253547"><ele>87.0</ele><time>2026-04-07T09:39:08Z</time></trkpt><trkpt lat="48.8438922449552" lon="2.5965206888948593"><ele>87.0</ele><time>2026-04-07T09:39:11Z</time></trkpt><trkpt lat="48.84398124078322" lon="2.596559049506938"><ele>87.0</ele><time>2026-04-07T09:39:14Z</time></trkpt><trkpt lat="48.844065627732626" lon="2.596549390285087"><ele>87.0</ele><time>2026-04-07T09:39:17Z</time></trkpt><trkpt lat="48.844153639632495" lon="2.5965422082907637"><ele>87.0</ele><time>2026-04-07T09:39:20Z</time></trkpt><trkpt lat="48.84424269815022" lon="2.5965613154523375"><ele>87.0</ele><time>2026-04-07T09:39:23Z</time></trkpt><trkpt lat="48.84433145726841" lon="2.5965331868246255"><ele>87.0</ele><time>2026-04-07T09:39:26Z</time></trkpt><trkpt lat="48.844413521232475" lon="2.5965174468122414"><ele>87.0</ele><time>2026-04-07T09:39:29Z</time></trkpt><trkpt lat="48.8444744304683" lon="2.5964841608999985"><ele>87.0</ele><time>2026-04-07T09:39:31Z</time></trkpt><trkpt lat="48.84452411681251" lon="2.5964066843320683"><ele>87.0</ele><time>2026-04-07T09:39:33Z</time></trkpt><trkpt lat="48.84458428568473" lon="2.596364626056202"><ele>87.16666666666667</ele><time>2026-04-07T09:39:35Z</time></trkpt><trkpt lat="48.84464217461578" lon="2.5963113279426806"><ele>87.33333333333333</ele><time>2026-04-07T09:39:37Z</time></trkpt><trkpt lat="48.84471139210343" lon="2.596253268601087"><ele>87.5</ele><time>2026-04-07T09:39:40Z</time></trkpt><trkpt lat="48.844758598500114" lon="2.596141308529934"><ele>87.66666666666666</ele><time>2026-04-07T09:39:43Z</time></trkpt><trkpt lat="48.84485781516391" lon="2.596084678238852"><ele>87.83333333333333</ele><time>2026-04-07T09:39:47Z</time></trkpt><trkpt lat="48.84491213243194" lon="2.5960311163179335"><ele>88.0</ele><time>2026-04-07T09:39:49Z</time></trkpt><trkpt lat="48.84496255998526" lon="2.5959727804082102"><ele>88.0</ele><time>2026-04-07T09:39:51Z</time></trkpt><trkpt lat="48.84502802214278" lon="2.59591778794444"><ele>88.0</ele><time>2026-04-07T09:39:54Z</time></trkpt><trkpt lat="48.845078454852946" lon="2.5958428869761363"><ele>88.0</ele><time>2026-04-07T09:39:57Z</time></trkpt><trkpt lat="48.84510507862816" lon="2.5957386728872893"><ele>88.0</ele><time>2026-04-07T09:40:00Z</time></trkpt><trkpt lat="48.845133987095494" lon="2.59564255497875"><ele>88.0</ele><time>2026-04-07T09:40:02Z</time></trkpt><trkpt lat="48.84518584063135" lon="2.595551305872966"><ele>88.0</ele><time>2026-04-07T09:40:05Z</time></trkpt><trkpt lat="48.84523830884569" lon="2.5954719435767233"><ele>88.0</ele><time>2026-04-07T09:40:08Z</time></trkpt><trkpt lat="48.84527378005543" lon="2.595383085804731"><ele>87.5</ele><time>2026-04-07T09:40:09.999Z</time></trkpt><trkpt lat="48.84534074006792" lon="2.5952919520529054"><ele>87.0</ele><time>2026-04-07T09:40:12.999Z</time></trkpt><trkpt lat="48.845409874827176" lon="2.5952231179682475"><ele>86.5</ele><time>2026-04-07T09:40:16Z</time></trkpt><trkpt lat="48.84547176166166" lon="2.595175222782457"><ele>86.0</ele><time>2026-04-07T09:40:19Z</time></trkpt><trkpt lat="48.845519222480974" lon="2.595087289505505"><ele>85.5</ele><time>2026-04-07T09:40:21Z</time></trkpt><trkpt lat="48.84556732404458" lon="2.5950184997857315"><ele>85.0</ele><time>2026-04-07T09:40:23Z</time></trkpt><trkpt lat="48.84564060028228" lon="2.5949613454984624"><ele>85.0</ele><time>2026-04-07T09:40:26Z</time></trkpt><trkpt lat="48.84570380976175" lon="2.5948838992756253"><ele>85.0</ele><time>2026-04-07T09:40:29Z</time></trkpt><trkpt lat="48.84572587838731" lon="2.5947765230635915"><ele>85.0</ele><time>2026-04-07T09:40:31Z</time></trkpt><trkpt lat="48.845833486345356" lon="2.5947207557566747"><ele>85.0</ele><time>2026-04-07T09:40:35Z</time></trkpt><trkpt lat="48.84589774293021" lon="2.594656183110886"><ele>85.0</ele><time>2026-04-07T09:40:38Z</time></trkpt><trkpt lat="48.84589060245061" lon="2.5945301188717647"><ele>85.0</ele><time>2026-04-07T09:40:40Z</time></trkpt><trkpt lat="48.84591312984003" lon="2.594415764565361"><ele>85.0</ele><time>2026-04-07T09:40:43Z</time></trkpt><trkpt lat="48.84590930651293" lon="2.594300489093172"><ele>85.0</ele><time>2026-04-07T09:40:46Z</time></trkpt><trkpt lat="48.845933462290866" lon="2.5941884824156407"><ele>85.0</ele><time>2026-04-07T09:40:49Z</time></trkpt><trkpt lat="48.84591167738866" lon="2.594091433733857"><ele>85.0</ele><time>2026-04-07T09:40:51Z</time></trkpt><trkpt lat="48.845924366990985" lon="2.593950834278641"><ele>85.0</ele><time>2026-04-07T09:40:54Z</time></trkpt><trkpt lat="48.84596980925681" lon="2.5938596552964035"><ele>85.0</ele><time>2026-04-07T09:40:57Z</time></trkpt><trkpt lat="48.84603350848722" lon="2.593816960014696"><ele>85.0</ele><time>2026-04-07T09:40:59Z</time></trkpt><trkpt lat="48.84610886936458" lon="2.5937506598469007"><ele>85.0</ele><time>2026-04-07T09:41:02Z</time></trkpt><trkpt lat="48.84617408548449" lon="2.5936454935083786"><ele>85.0</ele><time>2026-04-07T09:41:05Z</time></trkpt><trkpt lat="48.846244553417115" lon="2.593605358397939"><ele>85.0</ele><time>2026-04-07T09:41:08Z</time></trkpt><trkpt lat="48.846310119916886" lon="2.593621550638169"><ele>85.0</ele><time>2026-04-07T09:41:10Z</time></trkpt><trkpt lat="48.84637351662964" lon="2.593600208303275"><ele>85.0</ele><time>2026-04-07T09:41:13Z</time></trkpt><trkpt lat="48.846452298597384" lon="2.593618851075371"><ele>84.85714285714286</ele><time>2026-04-07T09:41:16Z</time></trkpt><trkpt lat="48.84653053726417" lon="2.593636556512857"><ele>84.71428571428571</ele><time>2026-04-07T09:41:19Z</time></trkpt><trkpt lat="48.84660349639654" lon="2.5935923901669713"><ele>84.57142857142857</ele><time>2026-04-07T09:41:21Z</time></trkpt><trkpt lat="48.846663777764114" lon="2.5935547445104374"><ele>84.42857142857143</ele><time>2026-04-07T09:41:23Z</time></trkpt><trkpt lat="48.846739401665225" lon="2.5935567775736628"><ele>84.28571428571428</ele><time>2026-04-07T09:41:26Z</time></trkpt><trkpt lat="48.84679944545632" lon="2.5935217148347838"><ele>84.14285714285714</ele><time>2026-04-07T09:41:28Z</time></trkpt><trkpt lat="48.84687486718961" lon="2.593481614299117"><ele>84.0</ele><time>2026-04-07T09:41:31Z</time></trkpt><trkpt lat="48.84695306728798" lon="2.593511724076911"><ele>84.0</ele><time>2026-04-07T09:41:34Z</time></trkpt><trkpt lat="48.84701941334201" lon="2.5935675026899068"><ele>84.0</ele><time>2026-04-07T09:41:37Z</time></trkpt><trkpt lat="48.84709643680102" lon="2.593639378133971"><ele>84.0</ele><time>2026-04-07T09:41:40Z</time></trkpt><trkpt lat="48.8471716690977" lon="2.5935863464337823"><ele>84.0</ele><time>2026-04-07T09:41:43Z</time></trkpt><trkpt lat="48.847265037922725" lon="2.593576599755808"><ele>84.0</ele><time>2026-04-07T09:41:46Z</time></trkpt><trkpt lat="48.84734533025067" lon="2.5935749272986772"><ele>84.0</ele><time>2026-04-07T09:41:49Z</time></trkpt><trkpt lat="48.847408745057926" lon="2.5935245321082743"><ele>84.0</ele><time>2026-04-07T09:41:51Z</time></trkpt><trkpt lat="48.84744679345452" lon="2.5934380330862874"><ele>84.0</ele><time>2026-04-07T09:41:53Z</time></trkpt><trkpt lat="48.84746671875518" lon="2.593341713239284"><ele>84.0</ele><time>2026-04-07T09:41:55Z</time></trkpt><trkpt lat="48.847476183546235" lon="2.5932020201007973"><ele>84.0</ele><time>2026-04-07T09:41:57.999Z</time></trkpt><trkpt lat="48.847458818090466" lon="2.593103764744435"><ele>84.0</ele><time>2026-04-07T09:42:00.999Z</time></trkpt><trkpt lat="48.8474445731522" lon="2.5930048863798794"><ele>84.0</ele><time>2026-04-07T09:42:02.999Z</time></trkpt><trkpt lat="48.847409433314375" lon="2.5929088464774313"><ele>84.0</ele><time>2026-04-07T09:42:04.999Z</time></trkpt><trkpt lat="48.84741875986112" lon="2.5927954325408065"><ele>84.28571428571429</ele><time>2026-04-07T09:42:07.999Z</time></trkpt><trkpt lat="48.84741573273558" lon="2.5926887455464005"><ele>84.57142857142857</ele><time>2026-04-07T09:42:10.999Z</time></trkpt><trkpt lat="48.84740205282947" lon="2.5925898641131906"><ele>84.85714285714286</ele><time>2026-04-07T09:42:12.999Z</time></trkpt><trkpt lat="48.84739441081259" lon="2.5924631221919583"><ele>85.14285714285714</ele><time>2026-04-07T09:42:15.999Z</time></trkpt><trkpt lat="48.84738618203637" lon="2.5923481327690108"><ele>85.42857142857143</ele><time>2026-04-07T09:42:18.999Z</time></trkpt><trkpt lat="48.84738984035278" lon="2.592234865815289"><ele>85.71428571428572</ele><time>2026-04-07T09:42:22Z</time></trkpt><trkpt lat="48.84737608548196" lon="2.592134035004623"><ele>86.0</ele><time>2026-04-07T09:42:25Z</time></trkpt><trkpt lat="48.84737153691278" lon="2.592025517030399"><ele>86.0</ele><time>2026-04-07T09:42:28Z</time></trkpt><trkpt lat="48.84736384658309" lon="2.591878426048579"><ele>86.0</ele><time>2026-04-07T09:42:31Z</time></trkpt><trkpt lat="48.84737385995109" lon="2.591742047780534"><ele>86.0</ele><time>2026-04-07T09:42:35Z</time></trkpt><trkpt lat="48.84735507736772" lon="2.5916308310548994"><ele>86.0</ele><time>2026-04-07T09:42:38Z</time></trkpt><trkpt lat="48.8473562327475" lon="2.591521153041012"><ele>86.0</ele><time>2026-04-07T09:42:41Z</time></trkpt><trkpt lat="48.84733373235233" lon="2.591404187627764"><ele>86.0</ele><time>2026-04-07T09:42:44Z</time></trkpt><trkpt lat="48.847352030563414" lon="2.5913015385716847"><ele>86.0</ele><time>2026-04-07T09:42:47Z</time></trkpt><trkpt lat="48.847354496190405" lon="2.5911885615665877"><ele>86.0</ele><time>2026-04-07T09:42:50Z</time></trkpt><trkpt lat="48.84731494237298" lon="2.5910961112423867"><ele>86.0</ele><time>2026-04-07T09:42:52Z</time></trkpt><trkpt lat="48.847311100797754" lon="2.590974857107448"><ele>86.0</ele><time>2026-04-07T09:42:55Z</time></trkpt><trkpt lat="48.84730297206695" lon="2.5908394227642746"><ele>86.0</ele><time>2026-04-07T09:42:58Z</time></trkpt><trkpt lat="48.84730778201477" lon="2.590703434724664"><ele>86.0</ele><time>2026-04-07T09:43:02Z</time></trkpt><trkpt lat="48.847295912518994" lon="2.5905746017662636"><ele>86.16666666666667</ele><time>2026-04-07T09:43:05Z</time></trkpt><trkpt lat="48.847293826530986" lon="2.590469929693955"><ele>86.33333333333334</ele><time>2026-04-07T09:43:08Z</time></trkpt><trkpt lat="48.84728463229875" lon="2.5903664828813433"><ele>86.5</ele><time>2026-04-07T09:43:10Z</time></trkpt><trkpt lat="48.84728234152199" lon="2.590240362351519"><ele>86.66666666666667</ele><time>2026-04-07T09:43:13Z</time></trkpt><trkpt lat="48.84726434764373" lon="2.5901119921675173"><ele>86.83333333333333</ele><time>2026-04-07T09:43:16Z</time></trkpt><trkpt lat="48.84726354962761" lon="2.5900157744001904"><ele>87.0</ele><time>2026-04-07T09:43:18Z</time></trkpt><trkpt lat="48.84724530372705" lon="2.589895208060322"><ele>87.0</ele><time>2026-04-07T09:43:21Z</time></trkpt><trkpt lat="48.84720271030324" lon="2.589805754169417"><ele>87.0</ele><time>2026-04-07T09:43:24Z</time></trkpt><trkpt lat="48.8471836906851" lon="2.5897118267704315"><ele>87.0</ele><time>2026-04-07T09:43:27Z</time></trkpt><trkpt lat="48.84725896676944" lon="2.589674261233546"><ele>87.0</ele><time>2026-04-07T09:43:30Z</time></trkpt><trkpt lat="48.84734699925612" lon="2.5897018635054136"><ele>87.0</ele><time>2026-04-07T09:43:33Z</time></trkpt><trkpt lat="48.84742797408381" lon="2.589709860544025"><ele>87.0</ele><time>2026-04-07T09:43:36Z</time></trkpt><trkpt lat="48.8475073710536" lon="2.5896999362376896"><ele>87.0</ele><time>2026-04-07T09:43:39Z</time></trkpt><trkpt lat="48.84757954156373" lon="2.5897066686122034"><ele>87.0</ele><time>2026-04-07T09:43:42Z</time></trkpt><trkpt lat="48.847661978099964" lon="2.5897262222099187"><ele>87.0</ele><time>2026-04-07T09:43:45Z</time></trkpt><trkpt lat="48.84773672372768" lon="2.589773370319425"><ele>87.0</ele><time>2026-04-07T09:43:48Z</time></trkpt><trkpt lat="48.84782826008401" lon="2.5897705592811064"><ele>87.0</ele><time>2026-04-07T09:43:51Z</time></trkpt><trkpt lat="48.84787645750293" lon="2.5897083989536833"><ele>87.0</ele><time>2026-04-07T09:43:53Z</time></trkpt><trkpt lat="48.84791589239159" lon="2.589632484441801"><ele>86.5</ele><time>2026-04-07T09:43:55Z</time></trkpt><trkpt lat="48.84795587322785" lon="2.5895128843886304"><ele>86.0</ele><time>2026-04-07T09:43:58Z</time></trkpt><trkpt lat="48.84792586165327" lon="2.589396919253063"><ele>85.5</ele><time>2026-04-07T09:44:01Z</time></trkpt><trkpt lat="48.84793570346906" lon="2.589280168020856"><ele>85.0</ele><time>2026-04-07T09:44:04Z</time></trkpt><trkpt lat="48.84795373396431" lon="2.589161943881959"><ele>84.5</ele><time>2026-04-07T09:44:07Z</time></trkpt><trkpt lat="48.8479819536487" lon="2.5890696541866305"><ele>84.0</ele><time>2026-04-07T09:44:09Z</time></trkpt><trkpt lat="48.84802311788346" lon="2.5889707376343623"><ele>84.0</ele><time>2026-04-07T09:44:12Z</time></trkpt><trkpt lat="48.84807832879867" lon="2.5888800857625816"><ele>84.0</ele><time>2026-04-07T09:44:15Z</time></trkpt><trkpt lat="48.84811518022471" lon="2.5887574009567267"><ele>84.0</ele><time>2026-04-07T09:44:17.999Z</time></trkpt><trkpt lat="48.84815448673511" lon="2.5886311031798264"><ele>84.0</ele><time>2026-04-07T09:44:20.999Z</time></trkpt><trkpt lat="48.84820209302539" lon="2.588539609661805"><ele>84.0</ele><time>2026-04-07T09:44:23.999Z</time></trkpt><trkpt lat="48.848257291675814" lon="2.588454615626145"><ele>84.0</ele><time>2026-04-07T09:44:27Z</time></trkpt><trkpt lat="48.84831579874391" lon="2.5883800474933536"><ele>84.16666666666667</ele><time>2026-04-07T09:44:30Z</time></trkpt><trkpt lat="48.84838499830407" lon="2.5883445502636393"><ele>84.33333333333333</ele><time>2026-04-07T09:44:33Z</time></trkpt><trkpt lat="48.84847584541769" lon="2.5883544653985413"><ele>84.5</ele><time>2026-04-07T09:44:36Z</time></trkpt><trkpt lat="48.84851012958017" lon="2.5884701905474086"><ele>84.66666666666666</ele><time>2026-04-07T09:44:39Z</time></trkpt><trkpt lat="48.848541635049045" lon="2.5885939488935565"><ele>84.83333333333333</ele><time>2026-04-07T09:44:42Z</time></trkpt><trkpt lat="48.848533067075735" lon="2.5886899117259485"><ele>85.0</ele><time>2026-04-07T09:44:44Z</time></trkpt><trkpt lat="48.84851315523092" lon="2.588816719703749"><ele>84.83333333333333</ele><time>2026-04-07T09:44:47Z</time></trkpt><trkpt lat="48.84848156035931" lon="2.588940108766293"><ele>84.66666666666666</ele><time>2026-04-07T09:44:50Z</time></trkpt><trkpt lat="48.848451221424355" lon="2.589062379000748"><ele>84.5</ele><time>2026-04-07T09:44:53Z</time></trkpt><trkpt lat="48.84842385571302" lon="2.5891720989920697"><ele>84.33333333333333</ele><time>2026-04-07T09:44:56Z</time></trkpt><trkpt lat="48.84841949548092" lon="2.589305175720627"><ele>84.16666666666667</ele><time>2026-04-07T09:44:59Z</time></trkpt><trkpt lat="48.84843947491626" lon="2.5894182754710053"><ele>84.0</ele><time>2026-04-07T09:45:02Z</time></trkpt><trkpt lat="48.84847812563229" lon="2.589518283605796"><ele>83.66666666666667</ele><time>2026-04-07T09:45:05Z</time></trkpt><trkpt lat="48.84850884747254" lon="2.5896548700994897"><ele>83.33333333333333</ele><time>2026-04-07T09:45:08Z</time></trkpt><trkpt lat="48.84853476211483" lon="2.5897918250971004"><ele>83.0</ele><time>2026-04-07T09:45:11Z</time></trkpt><trkpt lat="48.84851598813902" lon="2.5898910747834254"><ele>82.66666666666666</ele><time>2026-04-07T09:45:14Z</time></trkpt><trkpt lat="48.848486847952636" lon="2.5899914340876036"><ele>82.33333333333333</ele><time>2026-04-07T09:45:17Z</time></trkpt><trkpt lat="48.84846576628218" lon="2.590082686891282"><ele>82.0</ele><time>2026-04-07T09:45:19Z</time></trkpt><trkpt lat="48.84843570101439" lon="2.5901852045998193"><ele>81.99999999999999</ele><time>2026-04-07T09:45:21Z</time></trkpt><trkpt lat="48.848388332487474" lon="2.5902786297130045"><ele>82.0</ele><time>2026-04-07T09:45:23Z</time></trkpt><trkpt lat="48.84835920267303" lon="2.5903759997132014"><ele>82.0</ele><time>2026-04-07T09:45:26Z</time></trkpt><trkpt lat="48.84831325892093" lon="2.5904641452812864"><ele>82.0</ele><time>2026-04-07T09:45:29Z</time></trkpt><trkpt lat="48.848315200008706" lon="2.5905631739740245"><ele>82.0</ele><time>2026-04-07T09:45:32Z</time></trkpt><trkpt lat="48.84831585478533" lon="2.5906651787228965"><ele>81.99999999999999</ele><time>2026-04-07T09:45:34Z</time></trkpt><trkpt lat="48.84834769828741" lon="2.5907820858456136"><ele>82.0</ele><time>2026-04-07T09:45:37Z</time></trkpt><trkpt lat="48.848391173594614" lon="2.5909015929067576"><ele>82.0</ele><time>2026-04-07T09:45:40Z</time></trkpt><trkpt lat="48.84839884409489" lon="2.5910130025839577"><ele>82.0</ele><time>2026-04-07T09:45:42Z</time></trkpt><trkpt lat="48.84840393680097" lon="2.5911299908053134"><ele>82.0</ele><time>2026-04-07T09:45:45Z</time></trkpt><trkpt lat="48.848389731042595" lon="2.591261387677929"><ele>82.0</ele><time>2026-04-07T09:45:48Z</time></trkpt><trkpt lat="48.84833848668527" lon="2.591334519818252"><ele>82.0</ele><time>2026-04-07T09:45:51Z</time></trkpt><trkpt lat="48.84829612342707" lon="2.5914382984985695"><ele>82.0</ele><time>2026-04-07T09:45:54Z</time></trkpt><trkpt lat="48.84824153397867" lon="2.5915313742610717"><ele>82.0</ele><time>2026-04-07T09:45:57Z</time></trkpt><trkpt lat="48.84817227025627" lon="2.591595675285536"><ele>82.0</ele><time>2026-04-07T09:46:00Z</time></trkpt><trkpt lat="48.84810121434765" lon="2.591587695565554"><ele>82.0</ele><time>2026-04-07T09:46:03Z</time></trkpt><trkpt lat="48.84802799941372" lon="2.5916466160432283"><ele>82.0</ele><time>2026-04-07T09:46:06Z</time></trkpt><trkpt lat="48.847957005257754" lon="2.5917165824660024"><ele>82.0</ele><time>2026-04-07T09:46:09Z</time></trkpt><trkpt lat="48.84789248003635" lon="2.591746371630283"><ele>82.0</ele><time>2026-04-07T09:46:10.999Z</time></trkpt><trkpt lat="48.847831671093545" lon="2.5917720434890668"><ele>82.0</ele><time>2026-04-07T09:46:13.999Z</time></trkpt><trkpt lat="48.84776318538738" lon="2.5917674098705272"><ele>82.0</ele><time>2026-04-07T09:46:16.999Z</time></trkpt><trkpt lat="48.84770487022969" lon="2.5918126870690004"><ele>82.0</ele><time>2026-04-07T09:46:18.999Z</time></trkpt><trkpt lat="48.847624698267516" lon="2.5918241133030757"><ele>82.0</ele><time>2026-04-07T09:46:21.999Z</time></trkpt><trkpt lat="48.847543959204" lon="2.5918283232122072"><ele>82.0</ele><time>2026-04-07T09:46:24.999Z</time></trkpt><trkpt lat="48.84746459685485" lon="2.5918800173062286"><ele>82.0</ele><time>2026-04-07T09:46:27.999Z</time></trkpt><trkpt lat="48.84738538265973" lon="2.591907163659773"><ele>82.66666666666666</ele><time>2026-04-07T09:46:30.999Z</time></trkpt><trkpt lat="48.84734941362545" lon="2.5920151091569905"><ele>83.33333333333333</ele><time>2026-04-07T09:46:34Z</time></trkpt><trkpt lat="48.8473591413208" lon="2.5921273333186705"><ele>84.0</ele><time>2026-04-07T09:46:37Z</time></trkpt><trkpt lat="48.847367999513274" lon="2.5922376335491277"><ele>84.66666666666667</ele><time>2026-04-07T09:46:40Z</time></trkpt><trkpt lat="48.84738090300561" lon="2.592373704491178"><ele>85.33333333333334</ele><time>2026-04-07T09:46:43Z</time></trkpt><trkpt lat="48.847385946256374" lon="2.59247696714856"><ele>86.0</ele><time>2026-04-07T09:46:46Z</time></trkpt><trkpt lat="48.847378801116896" lon="2.592618628356482"><ele>86.0</ele><time>2026-04-07T09:46:49Z</time></trkpt><trkpt lat="48.84737553519203" lon="2.592749715346436"><ele>86.0</ele><time>2026-04-07T09:46:52Z</time></trkpt><trkpt lat="48.847374496462415" lon="2.5928781003272667"><ele>86.0</ele><time>2026-04-07T09:46:55Z</time></trkpt><trkpt lat="48.84740041991363" lon="2.5929662042627903"><ele>86.0</ele><time>2026-04-07T09:46:57Z</time></trkpt><trkpt lat="48.84742899000764" lon="2.593092270609125"><ele>86.0</ele><time>2026-04-07T09:47:00Z</time></trkpt><trkpt lat="48.84743276064396" lon="2.593200077736242"><ele>86.0</ele><time>2026-04-07T09:47:02Z</time></trkpt><trkpt lat="48.847441448958996" lon="2.593330259820912"><ele>85.71428571428572</ele><time>2026-04-07T09:47:06Z</time></trkpt><trkpt lat="48.84744200747235" lon="2.5934312608078125"><ele>85.42857142857143</ele><time>2026-04-07T09:47:08Z</time></trkpt><trkpt lat="48.84742904851023" lon="2.59352696423828"><ele>85.14285714285714</ele><time>2026-04-07T09:47:10Z</time></trkpt><trkpt lat="48.847444884631535" lon="2.5936272416822352"><ele>84.85714285714286</ele><time>2026-04-07T09:47:13Z</time></trkpt><trkpt lat="48.84746255482523" lon="2.593739830675448"><ele>84.57142857142857</ele><time>2026-04-07T09:47:17Z</time></trkpt><trkpt lat="48.84746354064243" lon="2.5938395419855707"><ele>84.28571428571429</ele><time>2026-04-07T09:47:19Z</time></trkpt><trkpt lat="48.84747241021782" lon="2.5939474511977036"><ele>84.0</ele><time>2026-04-07T09:47:21Z</time></trkpt><trkpt lat="48.847454919321166" lon="2.5940739723333035"><ele>83.5</ele><time>2026-04-07T09:47:23Z</time></trkpt><trkpt lat="48.84745462259621" lon="2.5941817613785374"><ele>83.0</ele><time>2026-04-07T09:47:25Z</time></trkpt><trkpt lat="48.84749628788065" lon="2.5942676666821667"><ele>82.5</ele><time>2026-04-07T09:47:28Z</time></trkpt><trkpt lat="48.84746622718273" lon="2.5943842821782623"><ele>82.0</ele><time>2026-04-07T09:47:30Z</time></trkpt><trkpt lat="48.84749873208393" lon="2.5945123412687696"><ele>81.5</ele><time>2026-04-07T09:47:33Z</time></trkpt><trkpt lat="48.84748782990157" lon="2.594658794866256"><ele>81.0</ele><time>2026-04-07T09:47:36Z</time></trkpt><trkpt lat="48.847520759603" lon="2.5948040145940756"><ele>80.83333333333333</ele><time>2026-04-07T09:47:39Z</time></trkpt><trkpt lat="48.8475365254918" lon="2.5949232578777504"><ele>80.66666666666667</ele><time>2026-04-07T09:47:42Z</time></trkpt><trkpt lat="48.847550219210255" lon="2.595054307275472"><ele>80.5</ele><time>2026-04-07T09:47:45Z</time></trkpt><trkpt lat="48.84753678898301" lon="2.595161164263459"><ele>80.33333333333334</ele><time>2026-04-07T09:47:47Z</time></trkpt><trkpt lat="48.8475441785529" lon="2.595298241222165"><ele>80.16666666666667</ele><time>2026-04-07T09:47:50Z</time></trkpt><trkpt lat="48.84756153461698" lon="2.5954235417972775"><ele>80.0</ele><time>2026-04-07T09:47:53Z</time></trkpt><trkpt lat="48.84756529675625" lon="2.595552773839298"><ele>80.0</ele><time>2026-04-07T09:47:56Z</time></trkpt><trkpt lat="48.84756402279085" lon="2.5956942367577276"><ele>80.0</ele><time>2026-04-07T09:47:59Z</time></trkpt><trkpt lat="48.847595056512304" lon="2.5958027130627506"><ele>80.0</ele><time>2026-04-07T09:48:02Z</time></trkpt><trkpt lat="48.84761109722882" lon="2.5959243197702437"><ele>80.0</ele><time>2026-04-07T09:48:05Z</time></trkpt><trkpt lat="48.84761018324512" lon="2.5960693345792873"><ele>80.0</ele><time>2026-04-07T09:48:08Z</time></trkpt><trkpt lat="48.84761855229832" lon="2.596192556931604"><ele>80.0</ele><time>2026-04-07T09:48:10Z</time></trkpt><trkpt lat="48.84762294438503" lon="2.5962957867193586"><ele>79.33333333333334</ele><time>2026-04-07T09:48:12Z</time></trkpt><trkpt lat="48.84760869796555" lon="2.596407538250808"><ele>78.66666666666667</ele><time>2026-04-07T09:48:14Z</time></trkpt><trkpt lat="48.84762666553205" lon="2.5965095729252443"><ele>78.0</ele><time>2026-04-07T09:48:17Z</time></trkpt><trkpt lat="48.84761506683392" lon="2.596617883965443"><ele>77.33333333333333</ele><time>2026-04-07T09:48:20Z</time></trkpt><trkpt lat="48.847659777742656" lon="2.596695324765006"><ele>76.66666666666666</ele><time>2026-04-07T09:48:22Z</time></trkpt><trkpt lat="48.84767186716788" lon="2.596848201237032"><ele>76.0</ele><time>2026-04-07T09:48:25Z</time></trkpt><trkpt lat="48.847669658492315" lon="2.5969699987650907"><ele>75.66666666666666</ele><time>2026-04-07T09:48:27Z</time></trkpt><trkpt lat="48.84762750218689" lon="2.5970714256523784"><ele>75.33333333333333</ele><time>2026-04-07T09:48:30Z</time></trkpt><trkpt lat="48.84757416536188" lon="2.5971276012064632"><ele>75.0</ele><time>2026-04-07T09:48:31.999Z</time></trkpt><trkpt lat="48.847551863072304" lon="2.597241093018955"><ele>74.66666666666667</ele><time>2026-04-07T09:48:33.999Z</time></trkpt><trkpt lat="48.84750270893771" lon="2.59733997364973"><ele>74.33333333333334</ele><time>2026-04-07T09:48:35.999Z</time></trkpt><trkpt lat="48.847500341447734" lon="2.5974770593695067"><ele>74.0</ele><time>2026-04-07T09:48:39Z</time></trkpt><trkpt lat="48.847493864943395" lon="2.5975903609733457"><ele>74.0</ele><time>2026-04-07T09:48:42Z</time></trkpt><trkpt lat="48.847478791348436" lon="2.5976863169448587"><ele>74.0</ele><time>2026-04-07T09:48:44Z</time></trkpt><trkpt lat="48.847459132306454" lon="2.5977916166296438"><ele>74.0</ele><time>2026-04-07T09:48:47Z</time></trkpt><trkpt lat="48.847447033939424" lon="2.5979330880513922"><ele>74.0</ele><time>2026-04-07T09:48:50Z</time></trkpt><trkpt lat="48.847425912038375" lon="2.598043242164577"><ele>74.0</ele><time>2026-04-07T09:48:53Z</time></trkpt><trkpt lat="48.84743142045393" lon="2.598147751755828"><ele>74.0</ele><time>2026-04-07T09:48:56Z</time></trkpt><trkpt lat="48.84744759973008" lon="2.5982563076740615"><ele>74.0</ele><time>2026-04-07T09:48:59Z</time></trkpt><trkpt lat="48.84743208488583" lon="2.5983559581766893"><ele>73.5</ele><time>2026-04-07T09:49:01Z</time></trkpt><trkpt lat="48.8474152805817" lon="2.5984736994227124"><ele>73.0</ele><time>2026-04-07T09:49:04Z</time></trkpt><trkpt lat="48.847367555812696" lon="2.598571344811267"><ele>72.5</ele><time>2026-04-07T09:49:07Z</time></trkpt><trkpt lat="48.84729423842185" lon="2.598650045429655"><ele>72.0</ele><time>2026-04-07T09:49:10Z</time></trkpt><trkpt lat="48.84721386336979" lon="2.5986788830185406"><ele>71.5</ele><time>2026-04-07T09:49:13Z</time></trkpt><trkpt lat="48.847132074961955" lon="2.598650435503725"><ele>71.0</ele><time>2026-04-07T09:49:16Z</time></trkpt><trkpt lat="48.847065573665326" lon="2.5985586891818575"><ele>71.0</ele><time>2026-04-07T09:49:19Z</time></trkpt><trkpt lat="48.84699862422449" lon="2.598474819234549"><ele>71.0</ele><time>2026-04-07T09:49:22Z</time></trkpt><trkpt lat="48.84692126571614" lon="2.5984318146932237"><ele>71.0</ele><time>2026-04-07T09:49:25Z</time></trkpt><trkpt lat="48.846842145477964" lon="2.5983925710663986"><ele>71.0</ele><time>2026-04-07T09:49:28Z</time></trkpt><trkpt lat="48.84676107422869" lon="2.598346029718595"><ele>71.0</ele><time>2026-04-07T09:49:31Z</time></trkpt><trkpt lat="48.84668966942425" lon="2.5983409819202494"><ele>71.0</ele><time>2026-04-07T09:49:34Z</time></trkpt><trkpt lat="48.8466131543037" lon="2.598351495299579"><ele>71.66666666666667</ele><time>2026-04-07T09:49:37Z</time></trkpt><trkpt lat="48.84653317166413" lon="2.598349723909115"><ele>72.33333333333334</ele><time>2026-04-07T09:49:40Z</time></trkpt><trkpt lat="48.84644929781401" lon="2.598344927158691"><ele>73.0</ele><time>2026-04-07T09:49:43Z</time></trkpt><trkpt lat="48.84638034401529" lon="2.5983617592476915"><ele>73.66666666666667</ele><time>2026-04-07T09:49:46Z</time></trkpt><trkpt lat="48.846291664077846" lon="2.598373798003229"><ele>74.33333333333333</ele><time>2026-04-07T09:49:49Z</time></trkpt><trkpt lat="48.84621660829708" lon="2.598377098343123"><ele>75.0</ele><time>2026-04-07T09:49:52Z</time></trkpt><trkpt lat="48.84614597157033" lon="2.598381968663863"><ele>75.0</ele><time>2026-04-07T09:49:54Z</time></trkpt><trkpt lat="48.846062208892256" lon="2.5984124825803505"><ele>75.0</ele><time>2026-04-07T09:49:57Z</time></trkpt><trkpt lat="48.845990688449554" lon="2.598379249621429"><ele>75.0</ele><time>2026-04-07T09:50:00Z</time></trkpt><trkpt lat="48.84591262826837" lon="2.598435836674135"><ele>75.0</ele><time>2026-04-07T09:50:02Z</time></trkpt><trkpt lat="48.8458407243236" lon="2.598441259555511"><ele>75.0</ele><time>2026-04-07T09:50:05Z</time></trkpt><trkpt lat="48.84577666071622" lon="2.598438460814393"><ele>75.0</ele><time>2026-04-07T09:50:08Z</time></trkpt><trkpt lat="48.84570274159484" lon="2.5984748586478323"><ele>75.66666666666667</ele><time>2026-04-07T09:50:11Z</time></trkpt><trkpt lat="48.845627747699865" lon="2.5984764556326345"><ele>76.33333333333333</ele><time>2026-04-07T09:50:14Z</time></trkpt><trkpt lat="48.84554248337839" lon="2.598481307290088"><ele>77.0</ele><time>2026-04-07T09:50:17Z</time></trkpt><trkpt lat="48.845467770517075" lon="2.598523074419981"><ele>77.66666666666666</ele><time>2026-04-07T09:50:20Z</time></trkpt><trkpt lat="48.845386748184076" lon="2.598521925145873"><ele>78.33333333333333</ele><time>2026-04-07T09:50:23Z</time></trkpt><trkpt lat="48.84531441055604" lon="2.59851277358834"><ele>79.0</ele><time>2026-04-07T09:50:26Z</time></trkpt><trkpt lat="48.84524123887846" lon="2.598480653028496"><ele>79.0</ele><time>2026-04-07T09:50:29Z</time></trkpt><trkpt lat="48.84517033038335" lon="2.5985529632302913"><ele>79.0</ele><time>2026-04-07T09:50:32Z</time></trkpt><trkpt lat="48.84510391332683" lon="2.5985711576182524"><ele>79.0</ele><time>2026-04-07T09:50:34Z</time></trkpt><trkpt lat="48.845018085732164" lon="2.5985843536052635"><ele>79.0</ele><time>2026-04-07T09:50:37Z</time></trkpt><trkpt lat="48.84494801011943" lon="2.59858966712925"><ele>79.0</ele><time>2026-04-07T09:50:38.999Z</time></trkpt><trkpt lat="48.84486779113338" lon="2.5986002106016"><ele>79.0</ele><time>2026-04-07T09:50:41.999Z</time></trkpt><trkpt lat="48.84479467595828" lon="2.598639398830032"><ele>78.83333333333333</ele><time>2026-04-07T09:50:45Z</time></trkpt><trkpt lat="48.84471227000297" lon="2.5985994305591524"><ele>78.66666666666666</ele><time>2026-04-07T09:50:48Z</time></trkpt><trkpt lat="48.84463914044011" lon="2.5986404106885024"><ele>78.5</ele><time>2026-04-07T09:50:51Z</time></trkpt><trkpt lat="48.84456359102177" lon="2.598661286408384"><ele>78.33333333333333</ele><time>2026-04-07T09:50:54Z</time></trkpt><trkpt lat="48.844476360253765" lon="2.598672320959417"><ele>78.16666666666667</ele><time>2026-04-07T09:50:57Z</time></trkpt><trkpt lat="48.844404295072884" lon="2.5986760217306335"><ele>78.0</ele><time>2026-04-07T09:51:00Z</time></trkpt><trkpt lat="48.8443471813189" lon="2.5987240618674567"><ele>78.0</ele><time>2026-04-07T09:51:02Z</time></trkpt><trkpt lat="48.844283506142304" lon="2.5987341617787285"><ele>78.0</ele><time>2026-04-07T09:51:04Z</time></trkpt><trkpt lat="48.84422486915079" lon="2.5987944246017567"><ele>78.0</ele><time>2026-04-07T09:51:06Z</time></trkpt><trkpt lat="48.84415097061089" lon="2.598796720005332"><ele>78.0</ele><time>2026-04-07T09:51:09Z</time></trkpt><trkpt lat="48.84407253739763" lon="2.598804325040646"><ele>78.0</ele><time>2026-04-07T09:51:12Z</time></trkpt><trkpt lat="48.843994533711" lon="2.5988142832841232"><ele>78.0</ele><time>2026-04-07T09:51:15Z</time></trkpt><trkpt lat="48.84391454855762" lon="2.5988429666992676"><ele>78.0</ele><time>2026-04-07T09:51:18Z</time></trkpt><trkpt lat="48.843841063476546" lon="2.598877016873378"><ele>78.0</ele><time>2026-04-07T09:51:21Z</time></trkpt><trkpt lat="48.843762308801914" lon="2.5988996671231526"><ele>78.0</ele><time>2026-04-07T09:51:24Z</time></trkpt><trkpt lat="48.84368877788243" lon="2.5989144518410834"><ele>78.0</ele><time>2026-04-07T09:51:27Z</time></trkpt><trkpt lat="48.843630315702185" lon="2.5989599136661226"><ele>78.0</ele><time>2026-04-07T09:51:29Z</time></trkpt><trkpt lat="48.843567075959506" lon="2.598952658970521"><ele>78.0</ele><time>2026-04-07T09:51:31Z</time></trkpt><trkpt lat="48.84348832981904" lon="2.598926013190008"><ele>78.0</ele><time>2026-04-07T09:51:34Z</time></trkpt><trkpt lat="48.84342030062453" lon="2.5989892258054015"><ele>78.0</ele><time>2026-04-07T09:51:37Z</time></trkpt><trkpt lat="48.84333493833919" lon="2.5989943779712386"><ele>78.16666666666667</ele><time>2026-04-07T09:51:40Z</time></trkpt><trkpt lat="48.84326326701893" lon="2.5989849281641173"><ele>78.33333333333333</ele><time>2026-04-07T09:51:43Z</time></trkpt><trkpt lat="48.84319545702455" lon="2.5990158513403268"><ele>78.5</ele><time>2026-04-07T09:51:46Z</time></trkpt><trkpt lat="48.843106786220346" lon="2.599031546846764"><ele>78.66666666666666</ele><time>2026-04-07T09:51:49Z</time></trkpt><trkpt lat="48.84304035382591" lon="2.5990373431864304"><ele>78.83333333333333</ele><time>2026-04-07T09:51:51Z</time></trkpt><trkpt lat="48.84295656296348" lon="2.599053940882905"><ele>79.0</ele><time>2026-04-07T09:51:54Z</time></trkpt><trkpt lat="48.842876401848535" lon="2.5990701167487695"><ele>79.0</ele><time>2026-04-07T09:51:57Z</time></trkpt><trkpt lat="48.842790056793035" lon="2.5990953746171837"><ele>79.0</ele><time>2026-04-07T09:52:00Z</time></trkpt><trkpt lat="48.84271350064822" lon="2.599120300418027"><ele>79.0</ele><time>2026-04-07T09:52:03Z</time></trkpt><trkpt lat="48.84263355414787" lon="2.5991544233889785"><ele>79.0</ele><time>2026-04-07T09:52:06Z</time></trkpt><trkpt lat="48.84255630677693" lon="2.599161374478351"><ele>79.0</ele><time>2026-04-07T09:52:09Z</time></trkpt><trkpt lat="48.842470308069935" lon="2.599199135010997"><ele>79.0</ele><time>2026-04-07T09:52:12Z</time></trkpt><trkpt lat="48.842405781612506" lon="2.5991529987440356"><ele>79.33333333333333</ele><time>2026-04-07T09:52:15Z</time></trkpt><trkpt lat="48.84236844671255" lon="2.599045336160093"><ele>79.66666666666666</ele><time>2026-04-07T09:52:18Z</time></trkpt><trkpt lat="48.842343691797105" lon="2.598952863093238"><ele>80.0</ele><time>2026-04-07T09:52:21Z</time></trkpt><trkpt lat="48.84232692313965" lon="2.5988463886606303"><ele>80.33333333333333</ele><time>2026-04-07T09:52:26Z</time></trkpt><trkpt lat="48.842330292964164" lon="2.598731175259819"><ele>80.66666666666667</ele><time>2026-04-07T09:52:30Z</time></trkpt><trkpt lat="48.84234106677933" lon="2.5985790907075854"><ele>81.0</ele><time>2026-04-07T09:52:33.999Z</time></trkpt><trkpt lat="48.842358279294466" lon="2.598475713714532"><ele>81.16666666666667</ele><time>2026-04-07T09:52:35.999Z</time></trkpt><trkpt lat="48.84237629311524" lon="2.59836115879356"><ele>81.33333333333333</ele><time>2026-04-07T09:52:38.999Z</time></trkpt><trkpt lat="48.842389317249776" lon="2.5982274047562823"><ele>81.5</ele><time>2026-04-07T09:52:42.999Z</time></trkpt><trkpt lat="48.84241323113966" lon="2.5981251135288215"><ele>81.66666666666666</ele><time>2026-04-07T09:52:45.999Z</time></trkpt><trkpt lat="48.84244355104295" lon="2.598009332658915"><ele>81.83333333333333</ele><time>2026-04-07T09:52:54Z</time></trkpt><trkpt lat="48.842364393302155" lon="2.5979622307295434"><ele>82.0</ele><time>2026-04-07T09:52:59Z</time></trkpt><trkpt lat="48.84229954326549" lon="2.5979380086766852"><ele>82.0</ele><time>2026-04-07T09:53:04Z</time></trkpt><trkpt lat="48.84222862769887" lon="2.5979155211318"><ele>82.0</ele><time>2026-04-07T09:53:07Z</time></trkpt><trkpt lat="48.842125473108304" lon="2.5979275142205105"><ele>82.0</ele><time>2026-04-07T09:53:09Z</time></trkpt><trkpt lat="48.84205642901609" lon="2.597916822504917"><ele>82.0</ele><time>2026-04-07T09:53:11Z</time></trkpt><trkpt lat="48.84199975776169" lon="2.597846355319987"><ele>82.0</ele><time>2026-04-07T09:53:14Z</time></trkpt><trkpt lat="48.84198546103086" lon="2.5977438122087557"><ele>82.0</ele><time>2026-04-07T09:53:17Z</time></trkpt><trkpt lat="48.84196940763258" lon="2.597642052023465"><ele>82.33333333333333</ele><time>2026-04-07T09:53:20Z</time></trkpt><trkpt lat="48.841931045453116" lon="2.597533569797179"><ele>82.66666666666666</ele><time>2026-04-07T09:53:23Z</time></trkpt><trkpt lat="48.84190485298545" lon="2.597444629461025"><ele>83.0</ele><time>2026-04-07T09:53:25Z</time></trkpt><trkpt lat="48.84187021024039" lon="2.5973236065483687"><ele>83.33333333333333</ele><time>2026-04-07T09:53:28Z</time></trkpt><trkpt lat="48.841872565321545" lon="2.59719785047086"><ele>83.66666666666667</ele><time>2026-04-07T09:53:31Z</time></trkpt><trkpt lat="48.84183900559132" lon="2.5970846224493385"><ele>84.0</ele><time>2026-04-07T09:53:34Z</time></trkpt><trkpt lat="48.841801554712404" lon="2.5969702492212896"><ele>85.28571428571429</ele><time>2026-04-07T09:53:37Z</time></trkpt><trkpt lat="48.84179658883492" lon="2.5968668971785043"><ele>86.57142857142857</ele><time>2026-04-07T09:53:40Z</time></trkpt><trkpt lat="48.84177743128635" lon="2.59674644998433"><ele>87.85714285714286</ele><time>2026-04-07T09:53:43Z</time></trkpt><trkpt lat="48.84176032476475" lon="2.5966220959642548"><ele>89.14285714285714</ele><time>2026-04-07T09:53:46Z</time></trkpt><trkpt lat="48.84175096786321" lon="2.596526556633547"><ele>90.42857142857143</ele><time>2026-04-07T09:53:49Z</time></trkpt><trkpt lat="48.84173868023666" lon="2.5964192209994787"><ele>91.71428571428572</ele><time>2026-04-07T09:53:52Z</time></trkpt><trkpt lat="48.84172966482966" lon="2.5963041737330155"><ele>93.0</ele><time>2026-04-07T09:53:55Z</time></trkpt><trkpt lat="48.84174475499698" lon="2.596189533006598"><ele>93.16666666666667</ele><time>2026-04-07T09:53:58Z</time></trkpt><trkpt lat="48.841728985784734" lon="2.5960579244305437"><ele>93.33333333333333</ele><time>2026-04-07T09:54:01Z</time></trkpt><trkpt lat="48.8417133937708" lon="2.5959479889079327"><ele>93.5</ele><time>2026-04-07T09:54:04Z</time></trkpt><trkpt lat="48.841698146558194" lon="2.5958330682037363"><ele>93.66666666666666</ele><time>2026-04-07T09:54:07Z</time></trkpt><trkpt lat="48.841691245576676" lon="2.5957172336986956"><ele>93.83333333333333</ele><time>2026-04-07T09:54:10Z</time></trkpt><trkpt lat="48.84171141443817" lon="2.5955828753987165"><ele>94.0</ele><time>2026-04-07T09:54:13Z</time></trkpt><trkpt lat="48.84169341764428" lon="2.5954638000161228"><ele>94.0</ele><time>2026-04-07T09:54:16Z</time></trkpt><trkpt lat="48.841674911106956" lon="2.5953622319768277"><ele>94.0</ele><time>2026-04-07T09:54:19Z</time></trkpt><trkpt lat="48.841656556643116" lon="2.5952365712422627"><ele>94.0</ele><time>2026-04-07T09:54:22Z</time></trkpt><trkpt lat="48.841673296686615" lon="2.5951047749341574"><ele>94.0</ele><time>2026-04-07T09:54:25Z</time></trkpt><trkpt lat="48.84165826702479" lon="2.5949843383412468"><ele>94.0</ele><time>2026-04-07T09:54:28Z</time></trkpt><trkpt lat="48.841670227847565" lon="2.5948746487184877"><ele>94.0</ele><time>2026-04-07T09:54:31Z</time></trkpt><trkpt lat="48.84167044651532" lon="2.5947567259494533"><ele>94.0</ele><time>2026-04-07T09:54:34Z</time></trkpt><trkpt lat="48.84167538848278" lon="2.5946525392262463"><ele>94.0</ele><time>2026-04-07T09:54:37Z</time></trkpt><trkpt lat="48.841653747430925" lon="2.594547269210654"><ele>94.0</ele><time>2026-04-07T09:54:40Z</time></trkpt><trkpt lat="48.84167195695556" lon="2.594420944689041"><ele>94.0</ele><time>2026-04-07T09:54:43Z</time></trkpt><trkpt lat="48.84168215573838" lon="2.594307477638596"><ele>94.0</ele><time>2026-04-07T09:54:46Z</time></trkpt><trkpt lat="48.84168464633749" lon="2.5941598468094353"><ele>94.0</ele><time>2026-04-07T09:54:48.999Z</time></trkpt><trkpt lat="48.8417052363801" lon="2.594047690577496"><ele>94.0</ele><time>2026-04-07T09:54:51.999Z</time></trkpt><trkpt lat="48.84172032210489" lon="2.593926825782229"><ele>94.0</ele><time>2026-04-07T09:54:55Z</time></trkpt><trkpt lat="48.8417073296739" lon="2.5938311587456218"><ele>94.0</ele><time>2026-04-07T09:54:58Z</time></trkpt><trkpt lat="48.84170948028595" lon="2.5937017764471517"><ele>94.0</ele><time>2026-04-07T09:55:01Z</time></trkpt><trkpt lat="48.841697639532384" lon="2.5935866530081175"><ele>94.0</ele><time>2026-04-07T09:55:04Z</time></trkpt><trkpt lat="48.84168965432005" lon="2.593460074894526"><ele>94.0</ele><time>2026-04-07T09:55:07Z</time></trkpt><trkpt lat="48.84168286505494" lon="2.5933335745486237"><ele>93.83333333333333</ele><time>2026-04-07T09:55:10Z</time></trkpt><trkpt lat="48.84167905866972" lon="2.593225461483409"><ele>93.66666666666666</ele><time>2026-04-07T09:55:13Z</time></trkpt><trkpt lat="48.84166936450195" lon="2.593104521721792"><ele>93.5</ele><time>2026-04-07T09:55:16Z</time></trkpt><trkpt lat="48.841629347146025" lon="2.5930233684167203"><ele>93.33333333333333</ele><time>2026-04-07T09:55:19Z</time></trkpt><trkpt lat="48.8415969037217" lon="2.5928971014223436"><ele>93.16666666666667</ele><time>2026-04-07T09:55:23Z</time></trkpt><trkpt lat="48.841599884663594" lon="2.592770905800868"><ele>93.0</ele><time>2026-04-07T09:55:27Z</time></trkpt><trkpt lat="48.84166073930829" lon="2.5927258487433673"><ele>93.00000000000001</ele><time>2026-04-07T09:55:32Z</time></trkpt><trkpt lat="48.841685618612" lon="2.5926020776794645"><ele>93.0</ele><time>2026-04-07T09:55:35Z</time></trkpt><trkpt lat="48.841738780678476" lon="2.5925507190969617"><ele>93.0</ele><time>2026-04-07T09:55:43Z</time></trkpt><trkpt lat="48.84177179986124" lon="2.5924538439839107"><ele>93.0</ele><time>2026-04-07T09:55:46Z</time></trkpt><trkpt lat="48.84170670295837" lon="2.5925350788338215"><ele>93.0</ele><time>2026-04-07T09:55:52Z</time></trkpt><trkpt lat="48.84166283737996" lon="2.592618897518902"><ele>93.00000000000001</ele><time>2026-04-07T09:55:55Z</time></trkpt><trkpt lat="48.84163003653061" lon="2.5927105897938656"><ele>93.0</ele><time>2026-04-07T09:55:58Z</time></trkpt><trkpt lat="48.8415763821573" lon="2.592655774541105"><ele>93.0</ele><time>2026-04-07T09:56:06Z</time></trkpt><trkpt lat="48.841624905787086" lon="2.5925692777653486"><ele>93.0</ele><time>2026-04-07T09:56:09Z</time></trkpt><trkpt lat="48.84162515030579" lon="2.592456351980997"><ele>93.0</ele><time>2026-04-07T09:56:13Z</time></trkpt><trkpt lat="48.84163366263955" lon="2.592358834167983"><ele>93.0</ele><time>2026-04-07T09:56:16Z</time></trkpt><trkpt lat="48.84162630888799" lon="2.592235533636916"><ele>93.0</ele><time>2026-04-07T09:56:18Z</time></trkpt><trkpt lat="48.84162950837926" lon="2.5920971293052752"><ele>93.0</ele><time>2026-04-07T09:56:21Z</time></trkpt><trkpt lat="48.84160255045238" lon="2.591947575355516"><ele>93.0</ele><time>2026-04-07T09:56:24Z</time></trkpt><trkpt lat="48.84157214905381" lon="2.5918090223624146"><ele>93.0</ele><time>2026-04-07T09:56:27Z</time></trkpt><trkpt lat="48.84152301044892" lon="2.591709741284745"><ele>93.0</ele><time>2026-04-07T09:56:29Z</time></trkpt><trkpt lat="48.84150825176223" lon="2.591606250405866"><ele>93.0</ele><time>2026-04-07T09:56:31Z</time></trkpt><trkpt lat="48.84147867984037" lon="2.5915002813659194"><ele>93.0</ele><time>2026-04-07T09:56:34Z</time></trkpt><trkpt lat="48.84146940634086" lon="2.5914016395601953"><ele>93.0</ele><time>2026-04-07T09:56:36Z</time></trkpt><trkpt lat="48.8414578504909" lon="2.59128506768989"><ele>93.0</ele><time>2026-04-07T09:56:39Z</time></trkpt><trkpt lat="48.84142190902353" lon="2.5911977525263112"><ele>93.0</ele><time>2026-04-07T09:56:42Z</time></trkpt><trkpt lat="48.841402398650956" lon="2.591079894459249"><ele>93.0</ele><time>2026-04-07T09:56:46Z</time></trkpt><trkpt lat="48.841345338770836" lon="2.591003255737037"><ele>93.0</ele><time>2026-04-07T09:56:49Z</time></trkpt><trkpt lat="48.84130215888103" lon="2.5909116900491544"><ele>93.0</ele><time>2026-04-07T09:56:52Z</time></trkpt><trkpt lat="48.841248441856855" lon="2.5908383350019064"><ele>93.0</ele><time>2026-04-07T09:56:55Z</time></trkpt><trkpt lat="48.84118888121682" lon="2.5907386519300495"><ele>92.83333333333333</ele><time>2026-04-07T09:56:58Z</time></trkpt><trkpt lat="48.841133950206334" lon="2.590651244534148"><ele>92.66666666666667</ele><time>2026-04-07T09:57:01Z</time></trkpt><trkpt lat="48.84106128983882" lon="2.5905460554640958"><ele>92.5</ele><time>2026-04-07T09:57:04Z</time></trkpt><trkpt lat="48.84097654255614" lon="2.590539993398797"><ele>92.33333333333334</ele><time>2026-04-07T09:57:07Z</time></trkpt><trkpt lat="48.8409423421792" lon="2.5904478305685115"><ele>92.16666666666667</ele><time>2026-04-07T09:57:09Z</time></trkpt><trkpt lat="48.8408801628483" lon="2.590387673727002"><ele>92.0</ele><time>2026-04-07T09:57:12Z</time></trkpt><trkpt lat="48.84081648934668" lon="2.59034605173084"><ele>92.33333333333334</ele><time>2026-04-07T09:57:15Z</time></trkpt><trkpt lat="48.840756257133165" lon="2.5902574464404933"><ele>92.66666666666667</ele><time>2026-04-07T09:57:19Z</time></trkpt><trkpt lat="48.84070300745166" lon="2.590204586945869"><ele>93.0</ele><time>2026-04-07T09:57:21Z</time></trkpt><trkpt lat="48.84070163090378" lon="2.590088806549913"><ele>93.33333333333333</ele><time>2026-04-07T09:57:24Z</time></trkpt><trkpt lat="48.840692874552104" lon="2.5899609220028776"><ele>93.66666666666666</ele><time>2026-04-07T09:57:27Z</time></trkpt><trkpt lat="48.84069739100565" lon="2.5898505137773924"><ele>94.0</ele><time>2026-04-07T09:57:30Z</time></trkpt><trkpt lat="48.84067777201721" lon="2.5897457057195266"><ele>94.0</ele><time>2026-04-07T09:57:32Z</time></trkpt><trkpt lat="48.840650417968796" lon="2.5896371150017337"><ele>94.0</ele><time>2026-04-07T09:57:35Z</time></trkpt><trkpt lat="48.84064937748932" lon="2.5895029728802608"><ele>94.0</ele><time>2026-04-07T09:57:38Z</time></trkpt><trkpt lat="48.84064870019157" lon="2.589382555910863"><ele>94.0</ele><time>2026-04-07T09:57:41Z</time></trkpt><trkpt lat="48.840655455616435" lon="2.58925882139558"><ele>94.0</ele><time>2026-04-07T09:57:44Z</time></trkpt><trkpt lat="48.840624872871295" lon="2.58912138977577"><ele>94.0</ele><time>2026-04-07T09:57:47Z</time></trkpt><trkpt lat="48.84061752151783" lon="2.589004007924147"><ele>94.66666666666666</ele><time>2026-04-07T09:57:50Z</time></trkpt><trkpt lat="48.84061392916239" lon="2.588906311861629"><ele>95.33333333333333</ele><time>2026-04-07T09:57:52Z</time></trkpt><trkpt lat="48.84062397908816" lon="2.5887829129520097"><ele>96.0</ele><time>2026-04-07T09:57:55Z</time></trkpt><trkpt lat="48.84062599065358" lon="2.588637516170324"><ele>96.66666666666666</ele><time>2026-04-07T09:57:58Z</time></trkpt><trkpt lat="48.84060861807416" lon="2.5885330367145167"><ele>97.33333333333333</ele><time>2026-04-07T09:58:01Z</time></trkpt><trkpt lat="48.840601756047874" lon="2.5884220922064016"><ele>98.0</ele><time>2026-04-07T09:58:03Z</time></trkpt><trkpt lat="48.84061127753455" lon="2.588304617932222"><ele>98.49999999999999</ele><time>2026-04-07T09:58:05Z</time></trkpt><trkpt lat="48.840606050256575" lon="2.588158412325626"><ele>99.0</ele><time>2026-04-07T09:58:08Z</time></trkpt><trkpt lat="48.840611081185024" lon="2.588045241343114"><ele>99.5</ele><time>2026-04-07T09:58:10Z</time></trkpt><trkpt lat="48.840633786137616" lon="2.5879255972411417"><ele>100.0</ele><time>2026-04-07T09:58:12Z</time></trkpt><trkpt lat="48.84055826773199" lon="2.587807674207822"><ele>100.49999999999999</ele><time>2026-04-07T09:58:14Z</time></trkpt><trkpt lat="48.84048110676874" lon="2.5877604839251247"><ele>101.0</ele><time>2026-04-07T09:58:16Z</time></trkpt><trkpt lat="48.84041708331433" lon="2.5877561806183205"><ele>100.99999999999999</ele><time>2026-04-07T09:58:18Z</time></trkpt><trkpt lat="48.84035472666247" lon="2.5877748392379107"><ele>101.0</ele><time>2026-04-07T09:58:21Z</time></trkpt><trkpt lat="48.8402853539034" lon="2.587763639476323"><ele>101.0</ele><time>2026-04-07T09:58:23Z</time></trkpt><trkpt lat="48.840207655426305" lon="2.5877611110343275"><ele>101.0</ele><time>2026-04-07T09:58:26Z</time></trkpt><trkpt lat="48.84012026425339" lon="2.587770716250712"><ele>100.99999999999999</ele><time>2026-04-07T09:58:29Z</time></trkpt><trkpt lat="48.840027802233124" lon="2.587797300861192"><ele>101.0</ele><time>2026-04-07T09:58:32Z</time></trkpt><trkpt lat="48.839958538368776" lon="2.5877994549100616"><ele>100.33333333333333</ele><time>2026-04-07T09:58:35Z</time></trkpt><trkpt lat="48.83989136214401" lon="2.58771012116615"><ele>99.66666666666666</ele><time>2026-04-07T09:58:40Z</time></trkpt><trkpt lat="48.83990032349628" lon="2.587604505513178"><ele>99.0</ele><time>2026-04-07T09:58:43Z</time></trkpt><trkpt lat="48.839901389288805" lon="2.587482245984387"><ele>98.33333333333334</ele><time>2026-04-07T09:58:46Z</time></trkpt><trkpt lat="48.83989789855389" lon="2.58738313349603"><ele>97.66666666666667</ele><time>2026-04-07T09:58:48Z</time></trkpt><trkpt lat="48.839913407570464" lon="2.587256865596784"><ele>97.0</ele><time>2026-04-07T09:58:51Z</time></trkpt><trkpt lat="48.83991167433419" lon="2.587152119570455"><ele>97.0</ele><time>2026-04-07T09:58:54Z</time></trkpt><trkpt lat="48.83984974333969" lon="2.5871016655435812"><ele>97.0</ele><time>2026-04-07T09:59:00Z</time></trkpt></trkseg></trk></gpx>